Observation data for Lesley on 11/17/2019      Previous  Date       Current Mesonet Observations  Soil Data  Daily Summary Page  Observations in Plain Language
KLE1 170600Z 07006KT 10/04 A2997 RMK A01 T00970036  RH  066%=      5-min Rain = 0
KLE1 170601Z 07006KT 10/04 A2997 RMK A01 T00970037  RH  066%=      5-min Rain = 0
KLE1 170602Z 07006KT 10/04 A2997 RMK A01 T00960036  RH  066%=      5-min Rain = 0
KLE1 170603Z 07006KT 10/04 A2996 RMK A01 T00960036  RH  066%=      5-min Rain = 0
KLE1 170604Z 07006KT 10/04 A2996 RMK A01 T00950036  RH  067%=      5-min Rain = 0
KLE1 170605Z 07007KT 10/04 A2996 RMK A01 T00950036  RH  067%=      5-min Rain = 0
KLE1 170606Z 08007KT 10/04 A2996 RMK A01 T00950036  RH  067%=      5-min Rain = 0
KLE1 170607Z 08006KT 10/04 A2996 RMK A01 T00960037  RH  067%=      5-min Rain = 0
KLE1 170608Z 09006KT 10/04 A2996 RMK A01 T00960036  RH  066%=      5-min Rain = 0
KLE1 170609Z 08006KT 10/04 A2996 RMK A01 T00960036  RH  066%=      5-min Rain = 0
KLE1 170610Z 08006KT 10/04 A2996 RMK A01 T00960036  RH  066%=      5-min Rain = 0
KLE1 170611Z 07006KT 10/04 A2996 RMK A01 T00960036  RH  066%=      5-min Rain = 0
KLE1 170612Z 07006KT 10/04 A2996 RMK A01 T00960036  RH  066%=      5-min Rain = 0
KLE1 170613Z 07006KT 10/04 A2996 RMK A01 T00970036  RH  066%=      5-min Rain = 0
KLE1 170614Z 07006KT 10/04 A2996 RMK A01 T00970036  RH  066%=      5-min Rain = 0
KLE1 170615Z 07006KT 10/04 A2996 RMK A01 T00970036  RH  066%=      5-min Rain = 0
KLE1 170616Z 06006KT 10/04 A2996 RMK A01 T00970037  RH  066%=      5-min Rain = 0
KLE1 170617Z 06006KT 10/04 A2996 RMK A01 T00970036  RH  066%=      5-min Rain = 0
KLE1 170618Z 06006KT 10/04 A2996 RMK A01 T00970036  RH  066%=      5-min Rain = 0
KLE1 170619Z 06006KT 10/04 A2995 RMK A01 T00970036  RH  066%=      5-min Rain = 0
KLE1 170620Z 06006KT 10/04 A2995 RMK A01 T00970037  RH  066%=      5-min Rain = 0
KLE1 170621Z 06006KT 10/04 A2995 RMK A01 T00970036  RH  066%=      5-min Rain = 0
KLE1 170622Z 05007KT 10/04 A2995 RMK A01 T00980036  RH  066%=      5-min Rain = 0
KLE1 170623Z 05007KT 10/04 A2995 RMK A01 T00980037  RH  066%=      5-min Rain = 0
KLE1 170624Z 05007KT 10/04 A2995 RMK A01 T00990037  RH  065%=      5-min Rain = 0
KLE1 170625Z 04008KT 10/04 A2995 RMK A01 T00980037  RH  065%=      5-min Rain = 0
KLE1 170626Z 04007KT 10/04 A2995 RMK A01 T00990037  RH  065%=      5-min Rain = 0
KLE1 170627Z 04007KT 10/04 A2996 RMK A01 T01000037  RH  065%=      5-min Rain = 0
KLE1 170628Z 04007KT 10/04 A2996 RMK A01 T01000037  RH  065%=      5-min Rain = 0
KLE1 170629Z 05007KT 10/04 A2996 RMK A01 T01000037  RH  065%=      5-min Rain = 0
KLE1 170630Z 05007KT 10/04 A2996 RMK A01 T01000036  RH  065%=      5-min Rain = 0
KLE1 170631Z 06006KT 10/04 A2996 RMK A01 T01000036  RH  065%=      5-min Rain = 0
KLE1 170632Z 06006KT 10/04 A2996 RMK A01 T00990036  RH  065%=      5-min Rain = 0
KLE1 170633Z 06006KT 10/04 A2996 RMK A01 T00990036  RH  065%=      5-min Rain = 0
KLE1 170634Z 06006KT 10/04 A2996 RMK A01 T00990036  RH  065%=      5-min Rain = 0
KLE1 170635Z 06006KT 10/04 A2996 RMK A01 T00990036  RH  065%=      5-min Rain = 0
KLE1 170636Z 06006KT 10/04 A2995 RMK A01 T00980036  RH  065%=      5-min Rain = 0
KLE1 170637Z 07006KT 10/04 A2995 RMK A01 T00980036  RH  065%=      5-min Rain = 0
KLE1 170638Z 07006KT 10/04 A2995 RMK A01 T00970036  RH  065%=      5-min Rain = 0
KLE1 170639Z 06006KT 10/04 A2995 RMK A01 T00970036  RH  066%=      5-min Rain = 0
KLE1 170640Z 05006KT 10/04 A2996 RMK A01 T00960035  RH  066%=      5-min Rain = 0
KLE1 170641Z 05006KT 10/04 A2996 RMK A01 T00960035  RH  066%=      5-min Rain = 0
KLE1 170642Z 05005KT 10/04 A2996 RMK A01 T00960035  RH  066%=      5-min Rain = 0
KLE1 170643Z 06005KT 10/04 A2996 RMK A01 T00950035  RH  066%=      5-min Rain = 0
KLE1 170644Z 06005KT 10/04 A2996 RMK A01 T00950035  RH  066%=      5-min Rain = 0
KLE1 170645Z 06005KT 10/04 A2996 RMK A01 T00950035  RH  066%=      5-min Rain = 0
KLE1 170646Z 06004KT 10/04 A2996 RMK A01 T00950035  RH  066%=      5-min Rain = 0
KLE1 170647Z 06004KT 10/04 A2996 RMK A01 T00950035  RH  066%=      5-min Rain = 0
KLE1 170648Z 06004KT 10/04 A2996 RMK A01 T00960035  RH  066%=      5-min Rain = 0
KLE1 170649Z 06004KT 10/04 A2996 RMK A01 T00960035  RH  066%=      5-min Rain = 0
KLE1 170650Z 06004KT 10/04 A2996 RMK A01 T00970035  RH  065%=      5-min Rain = 0
KLE1 170651Z 06005KT 10/04 A2996 RMK A01 T00970035  RH  065%=      5-min Rain = 0
KLE1 170652Z 06005KT 10/04 A2996 RMK A01 T00970035  RH  065%=      5-min Rain = 0
KLE1 170653Z 06005KT 10/04 A2996 RMK A01 T00980035  RH  065%=      5-min Rain = 0
KLE1 170654Z 06005KT 10/04 A2996 RMK A01 T00980035  RH  065%=      5-min Rain = 0
KLE1 170655Z 06005KT 10/04 A2996 RMK A01 T00970035  RH  065%=      5-min Rain = 0
KLE1 170656Z 06005KT 10/04 A2996 RMK A01 T00980035  RH  065%=      5-min Rain = 0
KLE1 170657Z 05005KT 10/04 A2996 RMK A01 T00970035  RH  065%=      5-min Rain = 0
KLE1 170658Z 05004KT 10/04 A2996 RMK A01 T00970035  RH  065%=      5-min Rain = 0
KLE1 170659Z 06004KT 10/04 A2996 RMK A01 T00970035  RH  065%=      5-min Rain = 0
KLE1 170700Z 06004KT 10/04 A2996 RMK A01 T00970035  RH  065%=      5-min Rain = 0
KLE1 170701Z 06003KT 10/04 A2996 RMK A01 T00960035  RH  065%=      5-min Rain = 0
KLE1 170702Z 06003KT 10/04 A2996 RMK A01 T00960035  RH  065%=      5-min Rain = 0
KLE1 170703Z 07004KT 10/04 A2996 RMK A01 T00970035  RH  065%=      5-min Rain = 0
KLE1 170704Z 06003KT 10/04 A2996 RMK A01 T00980035  RH  065%=      5-min Rain = 0
KLE1 170705Z 06003KT 10/03 A2996 RMK A01 T00970034  RH  065%=      5-min Rain = 0
KLE1 170706Z 06003KT 10/03 A2996 RMK A01 T00980034  RH  065%=      5-min Rain = 0
KLE1 170707Z 05003KT 10/03 A2996 RMK A01 T00980034  RH  065%=      5-min Rain = 0
KLE1 170708Z 04002KT 10/03 A2996 RMK A01 T00980034  RH  064%=      5-min Rain = 0
KLE1 170709Z 03002KT 10/03 A2996 RMK A01 T00980034  RH  064%=      5-min Rain = 0
KLE1 170710Z 01002KT 10/03 A2996 RMK A01 T00980034  RH  064%=      5-min Rain = 0
KLE1 170711Z 35002KT 10/03 A2996 RMK A01 T00980034  RH  065%=      5-min Rain = 0
KLE1 170712Z 31001KT 10/03 A2996 RMK A01 T00950033  RH  065%=      5-min Rain = 0
KLE1 170713Z 28002KT 09/03 A2996 RMK A01 T00930033  RH  066%=      5-min Rain = 0
KLE1 170714Z 29002KT 09/03 A2996 RMK A01 T00920033  RH  067%=      5-min Rain = 0
KLE1 170715Z 29002KT 09/03 A2996 RMK A01 T00920034  RH  067%=      5-min Rain = 0
KLE1 170716Z 28002KT 09/03 A2997 RMK A01 T00920034  RH  067%=      5-min Rain = 0
KLE1 170717Z 28002KT 09/03 A2997 RMK A01 T00930034  RH  067%=      5-min Rain = 0
KLE1 170718Z 29002KT 09/03 A2997 RMK A01 T00930034  RH  067%=      5-min Rain = 0
KLE1 170719Z 29002KT 09/03 A2997 RMK A01 T00920034  RH  067%=      5-min Rain = 0
KLE1 170720Z 30003KT 09/03 A2997 RMK A01 T00910034  RH  067%=      5-min Rain = 0
KLE1 170721Z 29003KT 09/03 A2997 RMK A01 T00900034  RH  068%=      5-min Rain = 0
KLE1 170722Z 29003KT 09/03 A2997 RMK A01 T00890034  RH  068%=      5-min Rain = 0
KLE1 170723Z 31003KT 09/03 A2997 RMK A01 T00890034  RH  069%=      5-min Rain = 0
KLE1 170724Z 31003KT 09/03 A2997 RMK A01 T00890034  RH  068%=      5-min Rain = 0
KLE1 170725Z 31003KT 09/03 A2997 RMK A01 T00890034  RH  068%=      5-min Rain = 0
KLE1 170726Z 32003KT 09/03 A2997 RMK A01 T00890034  RH  068%=      5-min Rain = 0
KLE1 170727Z 32004KT 09/03 A2997 RMK A01 T00880034  RH  069%=      5-min Rain = 0
KLE1 170728Z 32004KT 09/03 A2997 RMK A01 T00870034  RH  069%=      5-min Rain = 0
KLE1 170729Z 31004KT 09/03 A2997 RMK A01 T00870034  RH  069%=      5-min Rain = 0
KLE1 170730Z 31004KT 09/03 A2997 RMK A01 T00870034  RH  069%=      5-min Rain = 0
KLE1 170731Z 31004KT 09/03 A2997 RMK A01 T00870034  RH  069%=      5-min Rain = 0
KLE1 170732Z 30004KT 09/03 A2997 RMK A01 T00870034  RH  069%=      5-min Rain = 0
KLE1 170733Z 31003KT 09/03 A2997 RMK A01 T00870034  RH  069%=      5-min Rain = 0
KLE1 170734Z 31003KT 09/03 A2997 RMK A01 T00860034  RH  070%=      5-min Rain = 0
KLE1 170735Z 33003KT 09/03 A2997 RMK A01 T00860034  RH  070%=      5-min Rain = 0
KLE1 170736Z 33004KT 09/03 A2997 RMK A01 T00860034  RH  070%=      5-min Rain = 0
KLE1 170737Z 33004KT 09/03 A2997 RMK A01 T00860034  RH  070%=      5-min Rain = 0
KLE1 170738Z 32005KT 09/03 A2997 RMK A01 T00860034  RH  070%=      5-min Rain = 0
KLE1 170739Z 33005KT 09/03 A2997 RMK A01 T00860034  RH  070%=      5-min Rain = 0
KLE1 170740Z 34005KT 09/03 A2997 RMK A01 T00860034  RH  070%=      5-min Rain = 0
KLE1 170741Z 34005KT 09/03 A2997 RMK A01 T00850034  RH  070%=      5-min Rain = 0
KLE1 170742Z 34006KT 09/03 A2997 RMK A01 T00850034  RH  070%=      5-min Rain = 0
KLE1 170743Z 33006KT 08/03 A2997 RMK A01 T00840033  RH  070%=      5-min Rain = 0
KLE1 170744Z 33006KT 09/03 A2997 RMK A01 T00850033  RH  070%=      5-min Rain = 0
KLE1 170745Z 33006KT 09/03 A2997 RMK A01 T00850033  RH  070%=      5-min Rain = 0
KLE1 170746Z 33006KT 09/03 A2997 RMK A01 T00850033  RH  070%=      5-min Rain = 0
KLE1 170747Z 33007KT 09/03 A2997 RMK A01 T00850034  RH  070%=      5-min Rain = 0
KLE1 170748Z 33007KT 09/03 A2997 RMK A01 T00850034  RH  070%=      5-min Rain = 0
KLE1 170749Z 33008KT 09/04 A2997 RMK A01 T00860035  RH  070%=      5-min Rain = 0
KLE1 170750Z 33007KT 09/04 A2997 RMK A01 T00860035  RH  070%=      5-min Rain = 0
KLE1 170751Z 33007KT 09/04 A2997 RMK A01 T00860035  RH  070%=      5-min Rain = 0
KLE1 170752Z 32007KT 09/04 A2998 RMK A01 T00860035  RH  070%=      5-min Rain = 0
KLE1 170753Z 32007KT 09/04 A2998 RMK A01 T00860035  RH  070%=      5-min Rain = 0
KLE1 170754Z 32007KT 09/04 A2998 RMK A01 T00860035  RH  070%=      5-min Rain = 0
KLE1 170755Z 32007KT 09/04 A2998 RMK A01 T00860035  RH  071%=      5-min Rain = 0
KLE1 170756Z 33006KT 09/04 A2998 RMK A01 T00860035  RH  071%=      5-min Rain = 0
KLE1 170757Z 33005KT 09/04 A2998 RMK A01 T00860035  RH  071%=      5-min Rain = 0
KLE1 170758Z 33006KT 09/04 A2998 RMK A01 T00860035  RH  071%=      5-min Rain = 0
KLE1 170759Z 33006KT 09/04 A2998 RMK A01 T00860036  RH  071%=      5-min Rain = 0
KLE1 170800Z 33005KT 09/04 A2998 RMK A01 T00860035  RH  071%=      5-min Rain = 0
KLE1 170801Z 33006KT 09/04 A2998 RMK A01 T00860035  RH  071%=      5-min Rain = 0
KLE1 170802Z 32006KT 09/04 A2998 RMK A01 T00860035  RH  071%=      5-min Rain = 0
KLE1 170803Z 32006KT 09/04 A2998 RMK A01 T00860035  RH  071%=      5-min Rain = 0
KLE1 170804Z 32007KT 09/04 A2998 RMK A01 T00860035  RH  071%=      5-min Rain = 0
KLE1 170805Z 32006KT 09/04 A2998 RMK A01 T00850035  RH  071%=      5-min Rain = 0
KLE1 170806Z 31006KT 09/04 A2998 RMK A01 T00850035  RH  071%=      5-min Rain = 0
KLE1 170807Z 32006KT 09/04 A2998 RMK A01 T00850036  RH  071%=      5-min Rain = 0
KLE1 170808Z 32005KT 09/04 A2998 RMK A01 T00850036  RH  071%=      5-min Rain = 0
KLE1 170809Z 33007KT 09/04 A2998 RMK A01 T00850036  RH  071%=      5-min Rain = 0
KLE1 170810Z 33007KT 09/04 A2998 RMK A01 T00850036  RH  071%=      5-min Rain = 0
KLE1 170811Z 34007KT 09/04 A2999 RMK A01 T00860036  RH  071%=      5-min Rain = 0
KLE1 170812Z 34007KT 09/04 A2999 RMK A01 T00870037  RH  071%=      5-min Rain = 0
KLE1 170813Z 34007KT 09/04 A2999 RMK A01 T00880037  RH  070%=      5-min Rain = 0
KLE1 170814Z 35006KT 09/04 A2999 RMK A01 T00880037  RH  070%=      5-min Rain = 0
KLE1 170815Z 35006KT 09/04 A2998 RMK A01 T00880037  RH  070%=      5-min Rain = 0
KLE1 170816Z 35006KT 09/04 A2998 RMK A01 T00880036  RH  070%=      5-min Rain = 0
KLE1 170817Z 35007KT 09/04 A2998 RMK A01 T00890037  RH  070%=      5-min Rain = 0
KLE1 170818Z 35008KT 09/04 A2998 RMK A01 T00900037  RH  069%=      5-min Rain = 0
KLE1 170819Z 35008KT 09/04 A2998 RMK A01 T00910038  RH  069%=      5-min Rain = 0
KLE1 170820Z 35007KT 09/04 A2998 RMK A01 T00920038  RH  069%=      5-min Rain = 0
KLE1 170821Z 35007KT 09/04 A2998 RMK A01 T00920038  RH  069%=      5-min Rain = 0
KLE1 170822Z 35008KT 09/04 A2998 RMK A01 T00930037  RH  068%=      5-min Rain = 0
KLE1 170823Z 35009KT 09/04 A2998 RMK A01 T00930037  RH  068%=      5-min Rain = 0
KLE1 170824Z 35010KT 09/04 A2998 RMK A01 T00930037  RH  068%=      5-min Rain = 0
KLE1 170825Z 35010KT 09/04 A2999 RMK A01 T00930038  RH  068%=      5-min Rain = 0
KLE1 170826Z 35010KT 09/04 A2999 RMK A01 T00930037  RH  068%=      5-min Rain = 0
KLE1 170827Z 35011KT 09/04 A2999 RMK A01 T00930037  RH  068%=      5-min Rain = 0
KLE1 170828Z 34010KT 09/04 A2999 RMK A01 T00930037  RH  068%=      5-min Rain = 0
KLE1 170829Z 34010KT 09/04 A2999 RMK A01 T00930037  RH  068%=      5-min Rain = 0
KLE1 170830Z 34010KT 09/04 A2999 RMK A01 T00930037  RH  068%=      5-min Rain = 0
KLE1 170831Z 34009KT 09/04 A2999 RMK A01 T00930037  RH  068%=      5-min Rain = 0
KLE1 170832Z 34010KT 09/04 A2999 RMK A01 T00930037  RH  068%=      5-min Rain = 0
KLE1 170833Z 34010KT 09/04 A2999 RMK A01 T00940037  RH  068%=      5-min Rain = 0
KLE1 170834Z 34010KT 09/04 A2999 RMK A01 T00940037  RH  067%=      5-min Rain = 0
KLE1 170835Z 35011KT 10/04 A2999 RMK A01 T00950037  RH  067%=      5-min Rain = 0
KLE1 170836Z 35010KT 10/04 A2999 RMK A01 T00960037  RH  067%=      5-min Rain = 0
KLE1 170837Z 35010KT 10/04 A2999 RMK A01 T00960037  RH  067%=      5-min Rain = 0
KLE1 170838Z 35010KT 10/04 A2999 RMK A01 T00960036  RH  066%=      5-min Rain = 0
KLE1 170839Z 35010KT 10/04 A2999 RMK A01 T00960037  RH  066%=      5-min Rain = 0
KLE1 170840Z 35010KT 10/04 A2998 RMK A01 T00970037  RH  066%=      5-min Rain = 0
KLE1 170841Z 35009KT 10/04 A2998 RMK A01 T00970037  RH  066%=      5-min Rain = 0
KLE1 170842Z 35009KT 10/04 A2998 RMK A01 T00970036  RH  066%=      5-min Rain = 0
KLE1 170843Z 35008KT 10/04 A2998 RMK A01 T00970036  RH  066%=      5-min Rain = 0
KLE1 170844Z 35008KT 10/04 A2998 RMK A01 T00970036  RH  066%=      5-min Rain = 0
KLE1 170845Z 35008KT 10/04 A2998 RMK A01 T00970036  RH  066%=      5-min Rain = 0
KLE1 170846Z 35008KT 10/04 A2998 RMK A01 T00970036  RH  066%=      5-min Rain = 0
KLE1 170847Z 34008KT 10/04 A2999 RMK A01 T00970037  RH  066%=      5-min Rain = 0
KLE1 170848Z 34008KT 10/04 A2999 RMK A01 T00960036  RH  066%=      5-min Rain = 0
KLE1 170849Z 33008KT 10/04 A2999 RMK A01 T00960036  RH  066%=      5-min Rain = 0
KLE1 170850Z 34008KT 10/04 A2999 RMK A01 T00950036  RH  067%=      5-min Rain = 0
KLE1 170851Z 33008KT 10/04 A2999 RMK A01 T00950037  RH  067%=      5-min Rain = 0
KLE1 170852Z 33008KT 10/04 A2999 RMK A01 T00950036  RH  067%=      5-min Rain = 0
KLE1 170853Z 33008KT 10/04 A2999 RMK A01 T00960036  RH  066%=      5-min Rain = 0
KLE1 170854Z 32009KT 10/04 A2999 RMK A01 T00960037  RH  066%=      5-min Rain = 0
KLE1 170855Z 33010KT 10/04 A2999 RMK A01 T00980037  RH  066%=      5-min Rain = 0
KLE1 170856Z 33011KT 10/04 A2999 RMK A01 T01000037  RH  065%=      5-min Rain = 0
KLE1 170857Z 33012KT 10/04 A2999 RMK A01 T01020036  RH  064%=      5-min Rain = 0
KLE1 170858Z 33011KT 10/04 A2999 RMK A01 T01040035  RH  062%=      5-min Rain = 0
KLE1 170859Z 33011KT 11/04 A2999 RMK A01 T01050035  RH  062%=      5-min Rain = 0
KLE1 170900Z 34011KT 11/03 A2999 RMK A01 T01050034  RH  061%=      5-min Rain = 0
KLE1 170901Z 34012KT 11/03 A2999 RMK A01 T01060033  RH  060%=      5-min Rain = 0
KLE1 170902Z 34013KT 11/03 A2999 RMK A01 T01080031  RH  059%=      5-min Rain = 0
KLE1 170903Z 35015KT 11/03 A2999 RMK A01 T01100029  RH  057%=      5-min Rain = 0
KLE1 170904Z 34013KT 11/03 A2999 RMK A01 T01120025  RH  055%=      5-min Rain = 0
KLE1 170905Z 35012KT 11/03 A2999 RMK A01 T01130025  RH  055%=      5-min Rain = 0
KLE1 170906Z 35015KT 11/02 A2999 RMK A01 T01130022  RH  053%=      5-min Rain = 0
KLE1 170907Z 35017KT 12/02 A2999 RMK A01 T01150019  RH  052%=      5-min Rain = 0
KLE1 170908Z 00015KT 12/02 A2999 RMK A01 T01170018  RH  051%=      5-min Rain = 0
KLE1 170909Z 35018KT 12/02 A30 RMK A01 T01170016  RH  050%=      5-min Rain = 0
KLE1 170910Z 00016KT 12/01 A30 RMK A01 T01180014  RH  049%=      5-min Rain = 0
KLE1 170911Z 35014KT 12/01 A30 RMK A01 T01180014  RH  049%=      5-min Rain = 0
KLE1 170912Z 35018G23KT 12/01 A30 RMK A01 T01180013  RH  049%=      5-min Rain = 0
KLE1 170913Z 35020KT 12/01 A30 RMK A01 T01170012  RH  048%=      5-min Rain = 0
KLE1 170914Z 35015KT 12/01 A30 RMK A01 T01180011  RH  048%=      5-min Rain = 0
KLE1 170915Z 36016KT 12/01 A30 RMK A01 T01180012  RH  048%=      5-min Rain = 0
KLE1 170916Z 36017G25KT 12/01 A30 RMK A01 T01170010  RH  048%=      5-min Rain = 0
KLE1 170917Z 35023KT 12/01 A30 RMK A01 T01170009  RH  048%=      5-min Rain = 0
KLE1 170918Z 35024KT 12/01 A30 RMK A01 T01170008  RH  047%=      5-min Rain = 0
KLE1 170919Z 35022KT 12/01 A30 RMK A01 T01180008  RH  047%=      5-min Rain = 0
KLE1 170920Z 35021KT 12/01 A30 RMK A01 T01170007  RH  047%=      5-min Rain = 0
KLE1 170921Z 35020KT 12/01 A30 RMK A01 T01180007  RH  046%=      5-min Rain = 0
KLE1 170922Z 35019KT 12/01 A30 RMK A01 T01180007  RH  046%=      5-min Rain = 0
KLE1 170923Z 35017KT 12/01 A30 RMK A01 T01170006  RH  046%=      5-min Rain = 0
KLE1 170924Z 35015G20KT 12/01 A30 RMK A01 T01170006  RH  047%=      5-min Rain = 0
KLE1 170925Z 35016G22KT 12/01 A30 RMK A01 T01160006  RH  047%=      5-min Rain = 0
KLE1 170926Z 36019KT 12/01 A30 RMK A01 T01160006  RH  047%=      5-min Rain = 0
KLE1 170927Z 35016KT 12/01 A30 RMK A01 T01160005  RH  046%=      5-min Rain = 0
KLE1 170928Z 35018G24KT 12/01 A30 RMK A01 T01160005  RH  046%=      5-min Rain = 0
KLE1 170929Z 36014KT 12/00 A30 RMK A01 T01160004  RH  046%=      5-min Rain = 0
KLE1 170930Z 00016G21KT 12/00 A30 RMK A01 T01160004  RH  046%=      5-min Rain = 0
KLE1 170931Z 36014KT 12/00 A30 RMK A01 T01150004  RH  046%=      5-min Rain = 0
KLE1 170932Z 36017KT 12/00 A30 RMK A01 T01150004  RH  046%=      5-min Rain = 0
KLE1 170933Z 00016KT 12/00 A30 RMK A01 T01160003  RH  046%=      5-min Rain = 0
KLE1 170934Z 35014KT 12/00 A30 RMK A01 T01160003  RH  046%=      5-min Rain = 0
KLE1 170935Z 36014KT 12/00 A3001 RMK A01 T01160003  RH  046%=      5-min Rain = 0
KLE1 170936Z 36017G22KT 12/00 A3001 RMK A01 T01160003  RH  046%=      5-min Rain = 0
KLE1 170937Z 35016KT 12/00 A3001 RMK A01 T01160002  RH  046%=      5-min Rain = 0
KLE1 170938Z 36016KT 12/00 A3001 RMK A01 T01160003  RH  046%=      5-min Rain = 0
KLE1 170939Z 35017KT 12/00 A3001 RMK A01 T01160003  RH  046%=      5-min Rain = 0
KLE1 170940Z 35015KT 12/00 A3001 RMK A01 T01160002  RH  046%=      5-min Rain = 0
KLE1 170941Z 35014KT 12/00 A3001 RMK A01 T01160002  RH  045%=      5-min Rain = 0
KLE1 170942Z 36019KT 12/00 A3001 RMK A01 T01160003  RH  046%=      5-min Rain = 0
KLE1 170943Z 36016KT 12/00 A3001 RMK A01 T01160002  RH  045%=      5-min Rain = 0
KLE1 170944Z 35014KT 12/00 A3001 RMK A01 T01160002  RH  045%=      5-min Rain = 0
KLE1 170945Z 36017KT 12/00 A3001 RMK A01 T01160002  RH  045%=      5-min Rain = 0
KLE1 170946Z 00016G21KT 12/00 A3001 RMK A01 T01160002  RH  046%=      5-min Rain = 0
KLE1 170947Z 36014KT 12/00 A3001 RMK A01 T01160002  RH  046%=      5-min Rain = 0
KLE1 170948Z 00013KT 12/00 A3001 RMK A01 T01150002  RH  046%=      5-min Rain = 0
KLE1 170949Z 35012KT 12/00 A3002 RMK A01 T01150002  RH  046%=      5-min Rain = 0
KLE1 170950Z 36015G20KT 11/00 A3002 RMK A01 T01140002  RH  046%=      5-min Rain = 0
KLE1 170951Z 35017KT 11/00 A3002 RMK A01 T01140002  RH  046%=      5-min Rain = 0
KLE1 170952Z 35019KT 11/00 A3002 RMK A01 T01140002  RH  046%=      5-min Rain = 0
KLE1 170953Z 35016KT 12/00 A3002 RMK A01 T01150003  RH  046%=      5-min Rain = 0
KLE1 170954Z 35019KT 12/00 A3002 RMK A01 T01150003  RH  046%=      5-min Rain = 0
KLE1 170955Z 35017KT 12/00 A3003 RMK A01 T01150003  RH  046%=      5-min Rain = 0
KLE1 170956Z 35016KT 12/00 A3003 RMK A01 T01150003  RH  046%=      5-min Rain = 0
KLE1 170957Z 34014KT 11/00 A3003 RMK A01 T01140003  RH  046%=      5-min Rain = 0
KLE1 170958Z 34015KT 11/00 A3003 RMK A01 T01140003  RH  046%=      5-min Rain = 0
KLE1 170959Z 34015KT 11/00 A3003 RMK A01 T01140003  RH  046%=      5-min Rain = 0
KLE1 171000Z 34014G20KT 11/00 A3003 RMK A01 T01140003  RH  046%=      5-min Rain = 0
KLE1 171001Z 35013KT 11/00 A3003 RMK A01 T01140003  RH  046%=      5-min Rain = 0
KLE1 171002Z 35017G22KT 11/00 A3003 RMK A01 T01130003  RH  046%=      5-min Rain = 0
KLE1 171003Z 00018KT 11/00 A3003 RMK A01 T01140003  RH  046%=      5-min Rain = 0
KLE1 171004Z 35013G18KT 12/00 A3003 RMK A01 T01150004  RH  046%=      5-min Rain = 0
KLE1 171005Z 34015G20KT 11/00 A3003 RMK A01 T01140003  RH  046%=      5-min Rain = 0
KLE1 171006Z 34013KT 11/00 A3003 RMK A01 T01140003  RH  047%=      5-min Rain = 0
KLE1 171007Z 35015KT 11/00 A3003 RMK A01 T01130004  RH  047%=      5-min Rain = 0
KLE1 171008Z 35015KT 11/00 A3003 RMK A01 T01130004  RH  047%=      5-min Rain = 0
KLE1 171009Z 34016G21KT 11/00 A3003 RMK A01 T01130004  RH  047%=      5-min Rain = 0
KLE1 171010Z 34017KT 11/00 A3003 RMK A01 T01130004  RH  047%=      5-min Rain = 0
KLE1 171011Z 35014KT 11/00 A3003 RMK A01 T01130004  RH  047%=      5-min Rain = 0
KLE1 171012Z 34011KT 11/00 A3003 RMK A01 T01130004  RH  047%=      5-min Rain = 0
KLE1 171013Z 35014G19KT 11/00 A3002 RMK A01 T01120004  RH  047%=      5-min Rain = 0
KLE1 171014Z 00013KT 11/00 A3002 RMK A01 T01110004  RH  047%=      5-min Rain = 0
KLE1 171015Z 35012KT 11/00 A3002 RMK A01 T01120004  RH  047%=      5-min Rain = 0
KLE1 171016Z 35015KT 11/00 A3002 RMK A01 T01120004  RH  047%=      5-min Rain = 0
KLE1 171017Z 00014KT 11/00 A3002 RMK A01 T01120004  RH  047%=      5-min Rain = 0
KLE1 171018Z 00012KT 11/01 A3002 RMK A01 T01130005  RH  047%=      5-min Rain = 0
KLE1 171019Z 01014KT 11/00 A3002 RMK A01 T01130004  RH  047%=      5-min Rain = 0
KLE1 171020Z 01010KT 11/01 A3002 RMK A01 T01130005  RH  047%=      5-min Rain = 0
KLE1 171021Z 01009KT 11/01 A3002 RMK A01 T01130005  RH  047%=      5-min Rain = 0
KLE1 171022Z 35012KT 11/00 A3002 RMK A01 T01130004  RH  047%=      5-min Rain = 0
KLE1 171023Z 35010KT 11/01 A3003 RMK A01 T01120005  RH  047%=      5-min Rain = 0
KLE1 171024Z 36009KT 11/01 A3003 RMK A01 T01120005  RH  048%=      5-min Rain = 0
KLE1 171025Z 35008KT 11/00 A3003 RMK A01 T01120004  RH  048%=      5-min Rain = 0
KLE1 171026Z 35008KT 11/00 A3003 RMK A01 T01120004  RH  047%=      5-min Rain = 0
KLE1 171027Z 35008KT 11/00 A3003 RMK A01 T01110004  RH  048%=      5-min Rain = 0
KLE1 171028Z 36010KT 11/00 A3003 RMK A01 T01110004  RH  048%=      5-min Rain = 0
KLE1 171029Z 00014KT 11/01 A3003 RMK A01 T01110005  RH  048%=      5-min Rain = 0
KLE1 171030Z 01012G17KT 11/01 A3003 RMK A01 T01120005  RH  048%=      5-min Rain = 0
KLE1 171031Z 36011G17KT 11/01 A3003 RMK A01 T01120005  RH  048%=      5-min Rain = 0
KLE1 171032Z 34011KT 11/01 A3004 RMK A01 T01120005  RH  048%=      5-min Rain = 0
KLE1 171033Z 35011G19KT 11/01 A3004 RMK A01 T01120005  RH  048%=      5-min Rain = 0
KLE1 171034Z 34012G18KT 11/01 A3004 RMK A01 T01120005  RH  048%=      5-min Rain = 0
KLE1 171035Z 35011KT 11/01 A3004 RMK A01 T01110005  RH  048%=      5-min Rain = 0
KLE1 171036Z 36012G17KT 11/01 A3004 RMK A01 T01110005  RH  048%=      5-min Rain = 0
KLE1 171037Z 35009KT 11/01 A3004 RMK A01 T01110005  RH  048%=      5-min Rain = 0
KLE1 171038Z 35010KT 11/01 A3004 RMK A01 T01110006  RH  048%=      5-min Rain = 0
KLE1 171039Z 35010KT 11/01 A3004 RMK A01 T01110006  RH  048%=      5-min Rain = 0
KLE1 171040Z 34008KT 11/01 A3004 RMK A01 T01110006  RH  048%=      5-min Rain = 0
KLE1 171041Z 36013G18KT 11/01 A3004 RMK A01 T01110006  RH  049%=      5-min Rain = 0
KLE1 171042Z 35010KT 11/01 A3004 RMK A01 T01100006  RH  049%=      5-min Rain = 0
KLE1 171043Z 35008KT 11/01 A3004 RMK A01 T01100006  RH  049%=      5-min Rain = 0
KLE1 171044Z 36014G21KT 11/01 A3005 RMK A01 T01100006  RH  049%=      5-min Rain = 0
KLE1 171045Z 36013G18KT 11/01 A3004 RMK A01 T01090006  RH  049%=      5-min Rain = 0
KLE1 171046Z 35011KT 11/01 A3004 RMK A01 T01110007  RH  049%=      5-min Rain = 0
KLE1 171047Z 34008KT 11/01 A3005 RMK A01 T01110007  RH  048%=      5-min Rain = 0
KLE1 171048Z 34011KT 11/01 A3005 RMK A01 T01090006  RH  049%=      5-min Rain = 0
KLE1 171049Z 34009G14KT 11/01 A3005 RMK A01 T01090006  RH  049%=      5-min Rain = 0
KLE1 171050Z 35011G17KT 11/01 A3005 RMK A01 T01080006  RH  049%=      5-min Rain = 0
KLE1 171051Z 36012KT 11/01 A3005 RMK A01 T01090007  RH  049%=      5-min Rain = 0
KLE1 171052Z 35013KT 11/01 A3005 RMK A01 T01100007  RH  049%=      5-min Rain = 0
KLE1 171053Z 35011G16KT 11/01 A3005 RMK A01 T01110007  RH  049%=      5-min Rain = 0
KLE1 171054Z 34007KT 11/01 A3005 RMK A01 T01100007  RH  049%=      5-min Rain = 0
KLE1 171055Z 35009KT 11/01 A3005 RMK A01 T01090006  RH  049%=      5-min Rain = 0
KLE1 171056Z 34008KT 11/01 A3005 RMK A01 T01090006  RH  049%=      5-min Rain = 0
KLE1 171057Z 35010KT 11/01 A3005 RMK A01 T01090007  RH  049%=      5-min Rain = 0
KLE1 171058Z 35011KT 11/01 A3006 RMK A01 T01090007  RH  049%=      5-min Rain = 0
KLE1 171059Z 35011KT 11/01 A3005 RMK A01 T01090007  RH  049%=      5-min Rain = 0
KLE1 171100Z 35010KT 11/01 A3006 RMK A01 T01090007  RH  049%=      5-min Rain = 0
KLE1 171101Z 00010KT 11/01 A3005 RMK A01 T01090008  RH  050%=      5-min Rain = 0
KLE1 171102Z 36011KT 11/01 A3005 RMK A01 T01080007  RH  050%=      5-min Rain = 0
KLE1 171103Z 34011KT 11/01 A3006 RMK A01 T01080007  RH  050%=      5-min Rain = 0
KLE1 171104Z 36012KT 11/01 A3006 RMK A01 T01080008  RH  050%=      5-min Rain = 0
KLE1 171105Z 35010KT 11/01 A3006 RMK A01 T01080008  RH  050%=      5-min Rain = 0
KLE1 171106Z 35009G14KT 11/01 A3006 RMK A01 T01070008  RH  050%=      5-min Rain = 0
KLE1 171107Z 35012KT 11/01 A3006 RMK A01 T01070008  RH  050%=      5-min Rain = 0
KLE1 171108Z 35014KT 11/01 A3006 RMK A01 T01070009  RH  050%=      5-min Rain = 0
KLE1 171109Z 35011G16KT 11/01 A3006 RMK A01 T01060009  RH  051%=      5-min Rain = 0
KLE1 171110Z 35012KT 11/01 A3006 RMK A01 T01060008  RH  051%=      5-min Rain = 0
KLE1 171111Z 35012KT 11/01 A3006 RMK A01 T01070009  RH  050%=      5-min Rain = 0
KLE1 171112Z 35010KT 11/01 A3007 RMK A01 T01070008  RH  051%=      5-min Rain = 0
KLE1 171113Z 34009KT 11/01 A3007 RMK A01 T01050008  RH  051%=      5-min Rain = 0
KLE1 171114Z 35012KT 10/01 A3007 RMK A01 T01040008  RH  051%=      5-min Rain = 0
KLE1 171115Z 34010KT 11/01 A3007 RMK A01 T01050009  RH  051%=      5-min Rain = 0
KLE1 171116Z 35009KT 10/01 A3007 RMK A01 T01040008  RH  051%=      5-min Rain = 0
KLE1 171117Z 33011KT 10/01 A3007 RMK A01 T01040008  RH  051%=      5-min Rain = 0
KLE1 171118Z 33011KT 10/01 A3007 RMK A01 T01030009  RH  052%=      5-min Rain = 0
KLE1 171119Z 33011KT 10/01 A3007 RMK A01 T01030009  RH  052%=      5-min Rain = 0
KLE1 171120Z 35012KT 10/01 A3007 RMK A01 T01030009  RH  052%=      5-min Rain = 0
KLE1 171121Z 34012KT 10/01 A3007 RMK A01 T01030009  RH  052%=      5-min Rain = 0
KLE1 171122Z 34012KT 10/01 A3007 RMK A01 T01030009  RH  052%=      5-min Rain = 0
KLE1 171123Z 33012KT 10/01 A3007 RMK A01 T01030009  RH  052%=      5-min Rain = 0
KLE1 171124Z 35010KT 10/01 A3007 RMK A01 T01030009  RH  052%=      5-min Rain = 0
KLE1 171125Z 35010KT 10/01 A3007 RMK A01 T01030009  RH  052%=      5-min Rain = 0
KLE1 171126Z 34010KT 10/01 A3007 RMK A01 T01020009  RH  052%=      5-min Rain = 0
KLE1 171127Z 35013KT 10/01 A3008 RMK A01 T01020010  RH  053%=      5-min Rain = 0
KLE1 171128Z 35010KT 10/01 A3008 RMK A01 T01020010  RH  053%=      5-min Rain = 0
KLE1 171129Z 34009KT 10/01 A3008 RMK A01 T01010010  RH  053%=      5-min Rain = 0
KLE1 171130Z 34009KT 10/01 A3008 RMK A01 T01000009  RH  053%=      5-min Rain = 0
KLE1 171131Z 35010KT 10/01 A3008 RMK A01 T01000010  RH  053%=      5-min Rain = 0
KLE1 171132Z 34011KT 10/01 A3008 RMK A01 T01010011  RH  053%=      5-min Rain = 0
KLE1 171133Z 34011KT 10/01 A3008 RMK A01 T01010010  RH  053%=      5-min Rain = 0
KLE1 171134Z 35010KT 10/01 A3008 RMK A01 T01000010  RH  054%=      5-min Rain = 0
KLE1 171135Z 34010KT 10/01 A3008 RMK A01 T01010011  RH  053%=      5-min Rain = 0
KLE1 171136Z 34010KT 10/01 A3008 RMK A01 T01000010  RH  054%=      5-min Rain = 0
KLE1 171137Z 33010KT 10/01 A3008 RMK A01 T00990010  RH  054%=      5-min Rain = 0
KLE1 171138Z 34011KT 10/01 A3008 RMK A01 T00990010  RH  054%=      5-min Rain = 0
KLE1 171139Z 34011KT 10/01 A3008 RMK A01 T00990011  RH  054%=      5-min Rain = 0
KLE1 171140Z 34015KT 10/01 A3009 RMK A01 T01000011  RH  054%=      5-min Rain = 0
KLE1 171141Z 33011KT 10/01 A3009 RMK A01 T01020012  RH  054%=      5-min Rain = 0
KLE1 171142Z 34011KT 10/01 A3009 RMK A01 T01030012  RH  053%=      5-min Rain = 0
KLE1 171143Z 34008KT 10/01 A3009 RMK A01 T01010011  RH  053%=      5-min Rain = 0
KLE1 171144Z 33009KT 10/01 A3009 RMK A01 T00990010  RH  054%=      5-min Rain = 0
KLE1 171145Z 34010KT 10/01 A3009 RMK A01 T00980011  RH  054%=      5-min Rain = 0
KLE1 171146Z 33008KT 10/01 A3009 RMK A01 T00990011  RH  054%=      5-min Rain = 0
KLE1 171147Z 34010KT 10/01 A3009 RMK A01 T00990011  RH  054%=      5-min Rain = 0
KLE1 171148Z 33007G12KT 10/01 A3009 RMK A01 T00990012  RH  054%=      5-min Rain = 0
KLE1 171149Z 33012KT 10/01 A3009 RMK A01 T00990012  RH  054%=      5-min Rain = 0
KLE1 171150Z 34010KT 10/01 A3009 RMK A01 T00990012  RH  055%=      5-min Rain = 0
KLE1 171151Z 34009KT 10/01 A3009 RMK A01 T00980012  RH  055%=      5-min Rain = 0
KLE1 171152Z 33007KT 10/01 A3009 RMK A01 T00970011  RH  055%=      5-min Rain = 0
KLE1 171153Z 32009KT 10/01 A301 RMK A01 T00960011  RH  055%=      5-min Rain = 0
KLE1 171154Z 33007KT 10/01 A301 RMK A01 T00960011  RH  056%=      5-min Rain = 0
KLE1 171155Z 33008KT 10/01 A301 RMK A01 T00960011  RH  056%=      5-min Rain = 0
KLE1 171156Z 34008KT 10/01 A3009 RMK A01 T00950011  RH  056%=      5-min Rain = 0
KLE1 171157Z 35011KT 10/01 A301 RMK A01 T00960012  RH  056%=      5-min Rain = 0
KLE1 171158Z 34009KT 10/01 A301 RMK A01 T00970013  RH  056%=      5-min Rain = 0
KLE1 171159Z 35009KT 10/01 A301 RMK A01 T00970012  RH  056%=      5-min Rain = 0
KLE1 171200Z 35008KT 10/01 A301 RMK A01 T00960012  RH  056%=      5-min Rain = 0
KLE1 171201Z 33008KT 10/01 A301 RMK A01 T00950012  RH  056%=      5-min Rain = 0
KLE1 171202Z 34011KT 10/01 A301 RMK A01 T00950012  RH  056%=      5-min Rain = 0
KLE1 171203Z 34011KT 10/01 A301 RMK A01 T00970014  RH  056%=      5-min Rain = 0
KLE1 171204Z 34009KT 10/01 A3011 RMK A01 T00980014  RH  056%=      5-min Rain = 0
KLE1 171205Z 34008KT 10/01 A3011 RMK A01 T00990013  RH  055%=      5-min Rain = 0
KLE1 171206Z 34011KT 10/01 A3011 RMK A01 T00980013  RH  055%=      5-min Rain = 0
KLE1 171207Z 33012KT 10/01 A3011 RMK A01 T00970013  RH  056%=      5-min Rain = 0
KLE1 171208Z 34009KT 10/01 A3011 RMK A01 T00970013  RH  056%=      5-min Rain = 0
KLE1 171209Z 34011KT 10/01 A3011 RMK A01 T00970013  RH  056%=      5-min Rain = 0
KLE1 171210Z 33008KT 10/01 A3011 RMK A01 T00970014  RH  056%=      5-min Rain = 0
KLE1 171211Z 32009KT 10/01 A3011 RMK A01 T00970014  RH  056%=      5-min Rain = 0
KLE1 171212Z 34012KT 10/01 A3011 RMK A01 T00960014  RH  056%=      5-min Rain = 0
KLE1 171213Z 34011KT 10/01 A3011 RMK A01 T00960014  RH  057%=      5-min Rain = 0
KLE1 171214Z 34011KT 10/01 A3011 RMK A01 T00960014  RH  057%=      5-min Rain = 0
KLE1 171215Z 35010KT 10/01 A3011 RMK A01 T00950014  RH  057%=      5-min Rain = 0
KLE1 171216Z 35009KT 09/01 A3011 RMK A01 T00940014  RH  057%=      5-min Rain = 0
KLE1 171217Z 35008KT 09/01 A3011 RMK A01 T00930013  RH  057%=      5-min Rain = 0
KLE1 171218Z 35009KT 09/01 A3011 RMK A01 T00920013  RH  058%=      5-min Rain = 0
KLE1 171219Z 35009KT 09/01 A3012 RMK A01 T00920014  RH  058%=      5-min Rain = 0
KLE1 171220Z 35010KT 09/01 A3012 RMK A01 T00910013  RH  058%=      5-min Rain = 0
KLE1 171221Z 01012KT 09/01 A3011 RMK A01 T00910014  RH  059%=      5-min Rain = 0
KLE1 171222Z 33011KT 09/02 A3012 RMK A01 T00930015  RH  058%=      5-min Rain = 0
KLE1 171223Z 33012KT 10/02 A3012 RMK A01 T00950015  RH  058%=      5-min Rain = 0
KLE1 171224Z 35013KT 10/02 A3012 RMK A01 T00950015  RH  058%=      5-min Rain = 0
KLE1 171225Z 35010KT 09/02 A3012 RMK A01 T00940015  RH  058%=      5-min Rain = 0
KLE1 171226Z 34013KT 10/02 A3012 RMK A01 T00950015  RH  058%=      5-min Rain = 0
KLE1 171227Z 35012KT 10/02 A3012 RMK A01 T00950016  RH  058%=      5-min Rain = 0
KLE1 171228Z 00012KT 10/02 A3012 RMK A01 T00950016  RH  058%=      5-min Rain = 0
KLE1 171229Z 36012G17KT 10/02 A3012 RMK A01 T00950016  RH  058%=      5-min Rain = 0
KLE1 171230Z 35013KT 10/02 A3012 RMK A01 T00960016  RH  058%=      5-min Rain = 0
KLE1 171231Z 34013KT 10/02 A3012 RMK A01 T00970017  RH  057%=      5-min Rain = 0
KLE1 171232Z 35012KT 10/02 A3012 RMK A01 T00970016  RH  057%=      5-min Rain = 0
KLE1 171233Z 35012KT 10/02 A3012 RMK A01 T00960016  RH  057%=      5-min Rain = 0
KLE1 171234Z 36011KT 10/02 A3012 RMK A01 T00950016  RH  058%=      5-min Rain = 0
KLE1 171235Z 35010KT 10/02 A3012 RMK A01 T00950016  RH  058%=      5-min Rain = 0
KLE1 171236Z 36012KT 09/02 A3012 RMK A01 T00930016  RH  058%=      5-min Rain = 0
KLE1 171237Z 01015KT 10/02 A3012 RMK A01 T00950017  RH  058%=      5-min Rain = 0
KLE1 171238Z 01010G15KT 10/02 A3013 RMK A01 T00960017  RH  058%=      5-min Rain = 0
KLE1 171239Z 36009KT 10/02 A3013 RMK A01 T00960016  RH  058%=      5-min Rain = 0
KLE1 171240Z 34010KT 09/02 A3013 RMK A01 T00940015  RH  058%=      5-min Rain = 0
KLE1 171241Z 35011KT 09/02 A3013 RMK A01 T00920016  RH  059%=      5-min Rain = 0
KLE1 171242Z 35010KT 09/02 A3013 RMK A01 T00930016  RH  059%=      5-min Rain = 0
KLE1 171243Z 35013KT 09/02 A3013 RMK A01 T00930017  RH  059%=      5-min Rain = 0
KLE1 171244Z 35015KT 09/02 A3013 RMK A01 T00930017  RH  059%=      5-min Rain = 0
KLE1 171245Z 36014G19KT 09/02 A3013 RMK A01 T00940018  RH  059%=      5-min Rain = 0
KLE1 171246Z 35011KT 10/02 A3013 RMK A01 T00950018  RH  058%=      5-min Rain = 0
KLE1 171247Z 35010KT 10/02 A3013 RMK A01 T00950017  RH  058%=      5-min Rain = 0
KLE1 171248Z 34009KT 09/02 A3012 RMK A01 T00940017  RH  058%=      5-min Rain = 0
KLE1 171249Z 36012KT 09/02 A3013 RMK A01 T00920016  RH  059%=      5-min Rain = 0
KLE1 171250Z 36010KT 09/02 A3013 RMK A01 T00910017  RH  060%=      5-min Rain = 0
KLE1 171251Z 35010KT 09/02 A3013 RMK A01 T00910017  RH  060%=      5-min Rain = 0
KLE1 171252Z 35012KT 09/02 A3013 RMK A01 T00910017  RH  060%=      5-min Rain = 0
KLE1 171253Z 35013KT 09/02 A3013 RMK A01 T00910018  RH  060%=      5-min Rain = 0
KLE1 171254Z 35010KT 09/02 A3013 RMK A01 T00930018  RH  060%=      5-min Rain = 0
KLE1 171255Z 35011KT 09/02 A3013 RMK A01 T00930018  RH  059%=      5-min Rain = 0
KLE1 171256Z 35011KT 09/02 A3013 RMK A01 T00920017  RH  059%=      5-min Rain = 0
KLE1 171257Z 35010KT 09/02 A3013 RMK A01 T00910017  RH  060%=      5-min Rain = 0
KLE1 171258Z 35010KT 09/02 A3013 RMK A01 T00890016  RH  060%=      5-min Rain = 0
KLE1 171259Z 34012KT 09/02 A3013 RMK A01 T00890017  RH  061%=      5-min Rain = 0
KLE1 171300Z 35011KT 09/02 A3013 RMK A01 T00890017  RH  061%=      5-min Rain = 0
KLE1 171301Z 34012KT 09/02 A3013 RMK A01 T00890018  RH  061%=      5-min Rain = 0
KLE1 171302Z 34015KT 09/02 A3013 RMK A01 T00900018  RH  061%=      5-min Rain = 0
KLE1 171303Z 35013KT 09/02 A3014 RMK A01 T00910018  RH  060%=      5-min Rain = 0
KLE1 171304Z 34012KT 09/02 A3014 RMK A01 T00920018  RH  060%=      5-min Rain = 0
KLE1 171305Z 34013G18KT 09/02 A3014 RMK A01 T00910017  RH  060%=      5-min Rain = 0
KLE1 171306Z 35013KT 09/02 A3014 RMK A01 T00900017  RH  060%=      5-min Rain = 0
KLE1 171307Z 34010KT 09/02 A3014 RMK A01 T00910018  RH  060%=      5-min Rain = 0
KLE1 171308Z 35009KT 09/02 A3014 RMK A01 T00910017  RH  060%=      5-min Rain = 0
KLE1 171309Z 34010KT 09/02 A3014 RMK A01 T00890016  RH  060%=      5-min Rain = 0
KLE1 171310Z 33009KT 09/02 A3014 RMK A01 T00870016  RH  061%=      5-min Rain = 0
KLE1 171311Z 34012KT 09/02 A3014 RMK A01 T00870017  RH  061%=      5-min Rain = 0
KLE1 171312Z 35012KT 09/02 A3014 RMK A01 T00870017  RH  061%=      5-min Rain = 0
KLE1 171313Z 35010KT 09/02 A3014 RMK A01 T00880017  RH  061%=      5-min Rain = 0
KLE1 171314Z 34009KT 09/02 A3014 RMK A01 T00870016  RH  061%=      5-min Rain = 0
KLE1 171315Z 34010KT 09/02 A3014 RMK A01 T00870016  RH  061%=      5-min Rain = 0
KLE1 171316Z 34010G15KT 09/02 A3014 RMK A01 T00860016  RH  061%=      5-min Rain = 0
KLE1 171317Z 34011KT 09/02 A3015 RMK A01 T00860016  RH  062%=      5-min Rain = 0
KLE1 171318Z 34012G17KT 09/02 A3015 RMK A01 T00860016  RH  062%=      5-min Rain = 0
KLE1 171319Z 35015KT 09/02 A3015 RMK A01 T00870017  RH  061%=      5-min Rain = 0
KLE1 171320Z 34014KT 09/02 A3015 RMK A01 T00880017  RH  061%=      5-min Rain = 0
KLE1 171321Z 34013KT 09/02 A3015 RMK A01 T00880017  RH  061%=      5-min Rain = 0
KLE1 171322Z 34013KT 09/02 A3015 RMK A01 T00890017  RH  061%=      5-min Rain = 0
KLE1 171323Z 34011KT 09/02 A3015 RMK A01 T00890017  RH  060%=      5-min Rain = 0
KLE1 171324Z 35012KT 09/02 A3015 RMK A01 T00890016  RH  060%=      5-min Rain = 0
KLE1 171325Z 35014KT 09/02 A3015 RMK A01 T00880016  RH  061%=      5-min Rain = 0
KLE1 171326Z 35009G14KT 09/02 A3015 RMK A01 T00880016  RH  060%=      5-min Rain = 0
KLE1 171327Z 35007KT 09/02 A3015 RMK A01 T00880016  RH  060%=      5-min Rain = 0
KLE1 171328Z 36011KT 09/01 A3015 RMK A01 T00860014  RH  061%=      5-min Rain = 0
KLE1 171329Z 36011KT 08/02 A3015 RMK A01 T00840015  RH  062%=      5-min Rain = 0
KLE1 171330Z 36014KT 09/02 A3015 RMK A01 T00850016  RH  062%=      5-min Rain = 0
KLE1 171331Z 35011KT 09/02 A3015 RMK A01 T00870017  RH  061%=      5-min Rain = 0
KLE1 171332Z 35013KT 09/02 A3015 RMK A01 T00870016  RH  061%=      5-min Rain = 0
KLE1 171333Z 34010KT 09/02 A3015 RMK A01 T00870016  RH  061%=      5-min Rain = 0
KLE1 171334Z 34010KT 09/02 A3015 RMK A01 T00870015  RH  061%=      5-min Rain = 0
KLE1 171335Z 35012KT 09/02 A3015 RMK A01 T00860015  RH  061%=      5-min Rain = 0
KLE1 171336Z 35010KT 09/02 A3015 RMK A01 T00860015  RH  061%=      5-min Rain = 0
KLE1 171337Z 35012KT 09/02 A3015 RMK A01 T00860016  RH  061%=      5-min Rain = 0
KLE1 171338Z 34009KT 09/02 A3015 RMK A01 T00860015  RH  061%=      5-min Rain = 0
KLE1 171339Z 34012KT 09/02 A3016 RMK A01 T00870016  RH  061%=      5-min Rain = 0
KLE1 171340Z 34009KT 09/02 A3016 RMK A01 T00870016  RH  061%=      5-min Rain = 0
KLE1 171341Z 34010KT 09/02 A3016 RMK A01 T00870015  RH  061%=      5-min Rain = 0
KLE1 171342Z 34011KT 09/02 A3016 RMK A01 T00870015  RH  061%=      5-min Rain = 0
KLE1 171343Z 34010KT 09/02 A3016 RMK A01 T00870015  RH  061%=      5-min Rain = 0
KLE1 171344Z 34009KT 09/02 A3016 RMK A01 T00870016  RH  061%=      5-min Rain = 0
KLE1 171345Z 35011KT 09/02 A3016 RMK A01 T00870015  RH  061%=      5-min Rain = 0
KLE1 171346Z 34009KT 09/02 A3016 RMK A01 T00870015  RH  061%=      5-min Rain = 0
KLE1 171347Z 35012KT 09/02 A3016 RMK A01 T00870015  RH  061%=      5-min Rain = 0
KLE1 171348Z 35013KT 09/02 A3016 RMK A01 T00870015  RH  061%=      5-min Rain = 0
KLE1 171349Z 34011KT 09/02 A3017 RMK A01 T00880015  RH  061%=      5-min Rain = 0
KLE1 171350Z 34009KT 09/02 A3016 RMK A01 T00890016  RH  060%=      5-min Rain = 0
KLE1 171351Z 35010KT 09/02 A3017 RMK A01 T00880015  RH  060%=      5-min Rain = 0
KLE1 171352Z 35013KT 09/02 A3017 RMK A01 T00880015  RH  060%=      5-min Rain = 0
KLE1 171353Z 34013KT 09/02 A3017 RMK A01 T00880015  RH  060%=      5-min Rain = 0
KLE1 171354Z 34012KT 09/02 A3017 RMK A01 T00890015  RH  060%=      5-min Rain = 0
KLE1 171355Z 34011KT 09/02 A3017 RMK A01 T00890015  RH  060%=      5-min Rain = 0
KLE1 171356Z 35009KT 09/02 A3017 RMK A01 T00900015  RH  060%=      5-min Rain = 0
KLE1 171357Z 35012G17KT 09/02 A3017 RMK A01 T00890015  RH  060%=      5-min Rain = 0
KLE1 171358Z 35010KT 09/02 A3017 RMK A01 T00890015  RH  060%=      5-min Rain = 0
KLE1 171359Z 35010KT 09/02 A3017 RMK A01 T00890015  RH  060%=      5-min Rain = 0
KLE1 171400Z 35009KT 09/02 A3017 RMK A01 T00890015  RH  060%=      5-min Rain = 0
KLE1 171401Z 35011KT 09/02 A3017 RMK A01 T00900016  RH  060%=      5-min Rain = 0
KLE1 171402Z 35010KT 09/02 A3017 RMK A01 T00900016  RH  060%=      5-min Rain = 0
KLE1 171403Z 35010KT 09/02 A3017 RMK A01 T00900016  RH  060%=      5-min Rain = 0
KLE1 171404Z 35009KT 09/02 A3017 RMK A01 T00900015  RH  060%=      5-min Rain = 0
KLE1 171405Z 35010KT 09/02 A3017 RMK A01 T00900016  RH  060%=      5-min Rain = 0
KLE1 171406Z 35012KT 09/02 A3017 RMK A01 T00900016  RH  060%=      5-min Rain = 0
KLE1 171407Z 36011KT 09/02 A3017 RMK A01 T00910016  RH  059%=      5-min Rain = 0
KLE1 171408Z 36011KT 09/02 A3017 RMK A01 T00920016  RH  059%=      5-min Rain = 0
KLE1 171409Z 35011KT 09/02 A3017 RMK A01 T00920016  RH  059%=      5-min Rain = 0
KLE1 171410Z 35010KT 09/02 A3017 RMK A01 T00920016  RH  059%=      5-min Rain = 0
KLE1 171411Z 36009KT 09/02 A3017 RMK A01 T00920015  RH  059%=      5-min Rain = 0
KLE1 171412Z 00010KT 09/02 A3017 RMK A01 T00920016  RH  059%=      5-min Rain = 0
KLE1 171413Z 35010KT 09/02 A3017 RMK A01 T00920016  RH  059%=      5-min Rain = 0
KLE1 171414Z 35010KT 09/02 A3017 RMK A01 T00930016  RH  059%=      5-min Rain = 0
KLE1 171415Z 35012KT 09/02 A3017 RMK A01 T00930016  RH  059%=      5-min Rain = 0
KLE1 171416Z 36012KT 09/02 A3017 RMK A01 T00930016  RH  059%=      5-min Rain = 0
KLE1 171417Z 35012KT 09/02 A3017 RMK A01 T00940016  RH  058%=      5-min Rain = 0
KLE1 171418Z 35013KT 09/02 A3017 RMK A01 T00940016  RH  058%=      5-min Rain = 0
KLE1 171419Z 36012KT 09/02 A3018 RMK A01 T00940016  RH  058%=      5-min Rain = 0
KLE1 171420Z 36014KT 09/02 A3017 RMK A01 T00940016  RH  058%=      5-min Rain = 0
KLE1 171421Z 36012KT 10/02 A3017 RMK A01 T00950016  RH  058%=      5-min Rain = 0
KLE1 171422Z 35011KT 10/02 A3017 RMK A01 T00950017  RH  058%=      5-min Rain = 0
KLE1 171423Z 35011KT 10/02 A3017 RMK A01 T00950016  RH  058%=      5-min Rain = 0
KLE1 171424Z 35011KT 10/02 A3018 RMK A01 T00950016  RH  058%=      5-min Rain = 0
KLE1 171425Z 35011KT 10/02 A3018 RMK A01 T00960017  RH  058%=      5-min Rain = 0
KLE1 171426Z 35012KT 10/02 A3018 RMK A01 T00960017  RH  058%=      5-min Rain = 0
KLE1 171427Z 35009KT 10/02 A3018 RMK A01 T00960017  RH  058%=      5-min Rain = 0
KLE1 171428Z 35010KT 10/02 A3018 RMK A01 T00970017  RH  058%=      5-min Rain = 0
KLE1 171429Z 35013KT 10/02 A3018 RMK A01 T00970017  RH  058%=      5-min Rain = 0
KLE1 171430Z 36013KT 10/02 A3018 RMK A01 T00970017  RH  057%=      5-min Rain = 0
KLE1 171431Z 35011KT 10/02 A3018 RMK A01 T00970017  RH  057%=      5-min Rain = 0
KLE1 171432Z 34012KT 10/02 A3018 RMK A01 T00970017  RH  057%=      5-min Rain = 0
KLE1 171433Z 35010KT 10/02 A3018 RMK A01 T00980017  RH  057%=      5-min Rain = 0
KLE1 171434Z 35010KT 10/02 A3018 RMK A01 T00980017  RH  057%=      5-min Rain = 0
KLE1 171435Z 35011KT 10/02 A3018 RMK A01 T00990018  RH  057%=      5-min Rain = 0
KLE1 171436Z 35015KT 10/02 A3018 RMK A01 T00990017  RH  057%=      5-min Rain = 0
KLE1 171437Z 35014KT 10/02 A3018 RMK A01 T00990017  RH  057%=      5-min Rain = 0
KLE1 171438Z 34013KT 10/02 A3018 RMK A01 T00990017  RH  057%=      5-min Rain = 0
KLE1 171439Z 34013KT 10/02 A3018 RMK A01 T00990017  RH  057%=      5-min Rain = 0
KLE1 171440Z 35011KT 10/02 A3018 RMK A01 T00990017  RH  057%=      5-min Rain = 0
KLE1 171441Z 35012KT 10/02 A3018 RMK A01 T01000018  RH  057%=      5-min Rain = 0
KLE1 171442Z 35012KT 10/02 A3018 RMK A01 T01010017  RH  056%=      5-min Rain = 0
KLE1 171443Z 35015KT 10/02 A3018 RMK A01 T01010017  RH  056%=      5-min Rain = 0
KLE1 171444Z 35015KT 10/02 A3018 RMK A01 T01010017  RH  056%=      5-min Rain = 0
KLE1 171445Z 35014KT 10/02 A3018 RMK A01 T01020018  RH  056%=      5-min Rain = 0
KLE1 171446Z 35012KT 10/02 A3018 RMK A01 T01020018  RH  056%=      5-min Rain = 0
KLE1 171447Z 35013KT 10/02 A3018 RMK A01 T01020018  RH  056%=      5-min Rain = 0
KLE1 171448Z 36012KT 10/02 A3018 RMK A01 T01030018  RH  056%=      5-min Rain = 0
KLE1 171449Z 36012KT 10/02 A3018 RMK A01 T01030018  RH  055%=      5-min Rain = 0
KLE1 171450Z 36011KT 10/02 A3018 RMK A01 T01040018  RH  055%=      5-min Rain = 0
KLE1 171451Z 35012KT 11/02 A3018 RMK A01 T01050019  RH  055%=      5-min Rain = 0
KLE1 171452Z 35015KT 11/02 A3018 RMK A01 T01050018  RH  055%=      5-min Rain = 0
KLE1 171453Z 36013KT 11/02 A3018 RMK A01 T01060018  RH  055%=      5-min Rain = 0
KLE1 171454Z 35015KT 11/02 A3018 RMK A01 T01050018  RH  055%=      5-min Rain = 0
KLE1 171455Z 00014KT 11/02 A3018 RMK A01 T01050018  RH  055%=      5-min Rain = 0
KLE1 171456Z 35010KT 11/02 A3018 RMK A01 T01060018  RH  055%=      5-min Rain = 0
KLE1 171457Z 35011KT 11/02 A3018 RMK A01 T01060019  RH  055%=      5-min Rain = 0
KLE1 171458Z 00011KT 11/02 A3018 RMK A01 T01070019  RH  055%=      5-min Rain = 0
KLE1 171459Z 36010KT 11/02 A3018 RMK A01 T01070019  RH  054%=      5-min Rain = 0
KLE1 171500Z 00009KT 11/02 A3018 RMK A01 T01080019  RH  054%=      5-min Rain = 0
KLE1 171501Z 35010KT 11/02 A3018 RMK A01 T01090019  RH  054%=      5-min Rain = 0
KLE1 171502Z 00009KT 11/02 A3018 RMK A01 T01100020  RH  054%=      5-min Rain = 0
KLE1 171503Z 35010KT 11/02 A3018 RMK A01 T01100020  RH  054%=      5-min Rain = 0
KLE1 171504Z 00009KT 11/02 A3018 RMK A01 T01110020  RH  054%=      5-min Rain = 0
KLE1 171505Z 35010G16KT 11/02 A3018 RMK A01 T01120021  RH  053%=      5-min Rain = 0
KLE1 171506Z 35011G16KT 11/02 A3018 RMK A01 T01130020  RH  053%=      5-min Rain = 0
KLE1 171507Z 35011KT 11/02 A3018 RMK A01 T01130020  RH  053%=      5-min Rain = 0
KLE1 171508Z 35011KT 11/02 A3018 RMK A01 T01120019  RH  053%=      5-min Rain = 0
KLE1 171509Z 00012KT 11/02 A3018 RMK A01 T01120019  RH  053%=      5-min Rain = 0
KLE1 171510Z 00014KT 11/02 A3018 RMK A01 T01120020  RH  053%=      5-min Rain = 0
KLE1 171511Z 01012G18KT 11/02 A3018 RMK A01 T01130020  RH  053%=      5-min Rain = 0
KLE1 171512Z 00010KT 11/02 A3018 RMK A01 T01130020  RH  053%=      5-min Rain = 0
KLE1 171513Z 35010KT 11/02 A3018 RMK A01 T01140020  RH  053%=      5-min Rain = 0
KLE1 171514Z 00014KT 12/02 A3018 RMK A01 T01150020  RH  052%=      5-min Rain = 0
KLE1 171515Z 35014KT 11/02 A3018 RMK A01 T01140019  RH  052%=      5-min Rain = 0
KLE1 171516Z 35010KT 11/02 A3018 RMK A01 T01130020  RH  053%=      5-min Rain = 0
KLE1 171517Z 01013KT 11/02 A3018 RMK A01 T01140020  RH  053%=      5-min Rain = 0
KLE1 171518Z 36014KT 12/02 A3018 RMK A01 T01150020  RH  052%=      5-min Rain = 0
KLE1 171519Z 36010KT 11/02 A3018 RMK A01 T01140020  RH  052%=      5-min Rain = 0
KLE1 171520Z 36013KT 12/02 A3018 RMK A01 T01150021  RH  052%=      5-min Rain = 0
KLE1 171521Z 36010KT 12/02 A3018 RMK A01 T01150020  RH  052%=      5-min Rain = 0
KLE1 171522Z 35011KT 12/02 A3018 RMK A01 T01150020  RH  052%=      5-min Rain = 0
KLE1 171523Z 35013KT 12/02 A3018 RMK A01 T01160020  RH  052%=      5-min Rain = 0
KLE1 171524Z 00012KT 12/02 A3018 RMK A01 T01160020  RH  052%=      5-min Rain = 0
KLE1 171525Z 00011KT 12/02 A3018 RMK A01 T01160020  RH  052%=      5-min Rain = 0
KLE1 171526Z 01011KT 12/02 A3018 RMK A01 T01160020  RH  052%=      5-min Rain = 0
KLE1 171527Z 03011KT 12/02 A3018 RMK A01 T01160020  RH  052%=      5-min Rain = 0
KLE1 171528Z 03011KT 12/02 A3018 RMK A01 T01180021  RH  051%=      5-min Rain = 0
KLE1 171529Z 01009KT 12/02 A3018 RMK A01 T01190021  RH  051%=      5-min Rain = 0
KLE1 171530Z 36011KT 12/02 A3018 RMK A01 T01200021  RH  051%=      5-min Rain = 0
KLE1 171531Z 36009KT 12/02 A3018 RMK A01 T01200020  RH  050%=      5-min Rain = 0
KLE1 171532Z 00012KT 12/02 A3018 RMK A01 T01190020  RH  051%=      5-min Rain = 0
KLE1 171533Z 35011KT 12/02 A3018 RMK A01 T01190021  RH  051%=      5-min Rain = 0
KLE1 171534Z 00013KT 12/02 A3018 RMK A01 T01190020  RH  051%=      5-min Rain = 0
KLE1 171535Z 00013KT 12/02 A3018 RMK A01 T01190020  RH  051%=      5-min Rain = 0
KLE1 171536Z 35015KT 12/02 A3018 RMK A01 T01190020  RH  051%=      5-min Rain = 0
KLE1 171537Z 00017KT 12/02 A3018 RMK A01 T01190020  RH  051%=      5-min Rain = 0
KLE1 171538Z 36016KT 12/02 A3018 RMK A01 T01190020  RH  051%=      5-min Rain = 0
KLE1 171539Z 00014KT 12/02 A3018 RMK A01 T01190020  RH  051%=      5-min Rain = 0
KLE1 171540Z 00014KT 12/02 A3018 RMK A01 T01190020  RH  051%=      5-min Rain = 0
KLE1 171541Z 36011KT 12/02 A3018 RMK A01 T01200021  RH  051%=      5-min Rain = 0
KLE1 171542Z 36013KT 12/02 A3018 RMK A01 T01220022  RH  050%=      5-min Rain = 0
KLE1 171543Z 36013KT 12/02 A3018 RMK A01 T01230022  RH  050%=      5-min Rain = 0
KLE1 171544Z 01013KT 12/02 A3018 RMK A01 T01230022  RH  050%=      5-min Rain = 0
KLE1 171545Z 01013KT 12/02 A3018 RMK A01 T01240022  RH  050%=      5-min Rain = 0
KLE1 171546Z 01015KT 13/02 A3017 RMK A01 T01260022  RH  049%=      5-min Rain = 0
KLE1 171547Z 35016G21KT 13/02 A3018 RMK A01 T01260022  RH  049%=      5-min Rain = 0
KLE1 171548Z 35015KT 13/02 A3018 RMK A01 T01250022  RH  049%=      5-min Rain = 0
KLE1 171549Z 36017KT 13/02 A3018 RMK A01 T01250021  RH  049%=      5-min Rain = 0
KLE1 171550Z 00015KT 13/02 A3018 RMK A01 T01250021  RH  049%=      5-min Rain = 0
KLE1 171551Z 00015KT 12/02 A3018 RMK A01 T01240020  RH  049%=      5-min Rain = 0
KLE1 171552Z 01015KT 12/02 A3018 RMK A01 T01230020  RH  049%=      5-min Rain = 0
KLE1 171553Z 01014KT 12/02 A3018 RMK A01 T01230020  RH  050%=      5-min Rain = 0
KLE1 171554Z 00013KT 12/02 A3018 RMK A01 T01230021  RH  050%=      5-min Rain = 0
KLE1 171555Z 01011KT 13/02 A3018 RMK A01 T01250022  RH  049%=      5-min Rain = 0
KLE1 171556Z 01012KT 13/02 A3018 RMK A01 T01260022  RH  049%=      5-min Rain = 0
KLE1 171557Z 01012KT 13/02 A3018 RMK A01 T01280022  RH  049%=      5-min Rain = 0
KLE1 171558Z 00013KT 13/02 A3018 RMK A01 T01280021  RH  048%=      5-min Rain = 0
KLE1 171559Z 36015KT 13/02 A3018 RMK A01 T01270021  RH  049%=      5-min Rain = 0
KLE1 171600Z 00013KT 13/02 A3018 RMK A01 T01260021  RH  049%=      5-min Rain = 0
KLE1 171601Z 01012KT 13/02 A3018 RMK A01 T01260021  RH  049%=      5-min Rain = 0
KLE1 171602Z 00012KT 13/02 A3017 RMK A01 T01270021  RH  049%=      5-min Rain = 0
KLE1 171603Z 01015KT 13/02 A3018 RMK A01 T01280022  RH  048%=      5-min Rain = 0
KLE1 171604Z 00014KT 13/02 A3017 RMK A01 T01280021  RH  048%=      5-min Rain = 0
KLE1 171605Z 35015KT 13/02 A3017 RMK A01 T01280021  RH  048%=      5-min Rain = 0
KLE1 171606Z 36016KT 13/02 A3017 RMK A01 T01270021  RH  048%=      5-min Rain = 0
KLE1 171607Z 01013KT 13/02 A3017 RMK A01 T01280022  RH  049%=      5-min Rain = 0
KLE1 171608Z 35014KT 13/02 A3018 RMK A01 T01300023  RH  048%=      5-min Rain = 0
KLE1 171609Z 35015KT 13/02 A3018 RMK A01 T01300022  RH  048%=      5-min Rain = 0
KLE1 171610Z 35015KT 13/02 A3018 RMK A01 T01300022  RH  048%=      5-min Rain = 0
KLE1 171611Z 35014KT 13/02 A3017 RMK A01 T01290021  RH  048%=      5-min Rain = 0
KLE1 171612Z 36015KT 13/02 A3017 RMK A01 T01290022  RH  048%=      5-min Rain = 0
KLE1 171613Z 35015KT 13/02 A3017 RMK A01 T01290022  RH  048%=      5-min Rain = 0
KLE1 171614Z 35015KT 13/02 A3017 RMK A01 T01290021  RH  048%=      5-min Rain = 0
KLE1 171615Z 36015KT 13/02 A3017 RMK A01 T01290022  RH  048%=      5-min Rain = 0
KLE1 171616Z 35011KT 13/02 A3017 RMK A01 T01300023  RH  048%=      5-min Rain = 0
KLE1 171617Z 00016KT 13/02 A3017 RMK A01 T01330024  RH  048%=      5-min Rain = 0
KLE1 171618Z 36013KT 13/02 A3017 RMK A01 T01330022  RH  047%=      5-min Rain = 0
KLE1 171619Z 35015KT 13/02 A3017 RMK A01 T01330023  RH  047%=      5-min Rain = 0
KLE1 171620Z 36014KT 13/02 A3017 RMK A01 T01330022  RH  047%=      5-min Rain = 0
KLE1 171621Z 00016KT 13/02 A3017 RMK A01 T01330022  RH  047%=      5-min Rain = 0
KLE1 171622Z 00016KT 13/02 A3017 RMK A01 T01330022  RH  047%=      5-min Rain = 0
KLE1 171623Z 01014KT 13/02 A3017 RMK A01 T01330022  RH  047%=      5-min Rain = 0
KLE1 171624Z 01014KT 13/02 A3017 RMK A01 T01330022  RH  047%=      5-min Rain = 0
KLE1 171625Z 00014KT 13/02 A3017 RMK A01 T01330023  RH  047%=      5-min Rain = 0
KLE1 171626Z 00013KT 13/02 A3016 RMK A01 T01330023  RH  047%=      5-min Rain = 0
KLE1 171627Z 01013KT 13/02 A3016 RMK A01 T01340024  RH  047%=      5-min Rain = 0
KLE1 171628Z 01012KT 14/02 A3016 RMK A01 T01360023  RH  047%=      5-min Rain = 0
KLE1 171629Z 01012KT 14/02 A3016 RMK A01 T01350023  RH  047%=      5-min Rain = 0
KLE1 171630Z 00012KT 14/02 A3016 RMK A01 T01350023  RH  047%=      5-min Rain = 0
KLE1 171631Z 35013KT 14/02 A3017 RMK A01 T01360024  RH  047%=      5-min Rain = 0
KLE1 171632Z 36014KT 14/02 A3017 RMK A01 T01360023  RH  046%=      5-min Rain = 0
KLE1 171633Z 34014KT 14/02 A3017 RMK A01 T01350023  RH  047%=      5-min Rain = 0
KLE1 171634Z 35013KT 14/02 A3017 RMK A01 T01350023  RH  047%=      5-min Rain = 0
KLE1 171635Z 01013KT 14/02 A3017 RMK A01 T01360024  RH  047%=      5-min Rain = 0
KLE1 171636Z 01014KT 14/02 A3017 RMK A01 T01370023  RH  046%=      5-min Rain = 0
KLE1 171637Z 01011KT 14/02 A3017 RMK A01 T01360023  RH  046%=      5-min Rain = 0
KLE1 171638Z 01011KT 14/02 A3017 RMK A01 T01370024  RH  046%=      5-min Rain = 0
KLE1 171639Z 01011KT 14/02 A3017 RMK A01 T01390024  RH  046%=      5-min Rain = 0
KLE1 171640Z 35010KT 14/03 A3017 RMK A01 T01400025  RH  046%=      5-min Rain = 0
KLE1 171641Z 36013KT 14/02 A3017 RMK A01 T01400024  RH  045%=      5-min Rain = 0
KLE1 171642Z 35012KT 14/02 A3018 RMK A01 T01400024  RH  045%=      5-min Rain = 0
KLE1 171643Z 35011KT 14/02 A3018 RMK A01 T01390023  RH  045%=      5-min Rain = 0
KLE1 171644Z 36012KT 14/02 A3018 RMK A01 T01380023  RH  046%=      5-min Rain = 0
KLE1 171645Z 01011KT 14/02 A3018 RMK A01 T01370022  RH  046%=      5-min Rain = 0
KLE1 171646Z 00008KT 14/02 A3017 RMK A01 T01360023  RH  046%=      5-min Rain = 0
KLE1 171647Z 35010KT 14/03 A3017 RMK A01 T01370025  RH  047%=      5-min Rain = 0
KLE1 171648Z 36011KT 14/03 A3017 RMK A01 T01400025  RH  046%=      5-min Rain = 0
KLE1 171649Z 35011KT 14/03 A3017 RMK A01 T01410025  RH  045%=      5-min Rain = 0
KLE1 171650Z 35014KT 14/03 A3017 RMK A01 T01430025  RH  045%=      5-min Rain = 0
KLE1 171651Z 35012KT 14/02 A3017 RMK A01 T01430024  RH  045%=      5-min Rain = 0
KLE1 171652Z 35012KT 14/03 A3017 RMK A01 T01430025  RH  045%=      5-min Rain = 0
KLE1 171653Z 00011KT 14/02 A3017 RMK A01 T01430024  RH  045%=      5-min Rain = 0
KLE1 171654Z 01013KT 14/02 A3017 RMK A01 T01430024  RH  045%=      5-min Rain = 0
KLE1 171655Z 01011KT 14/02 A3017 RMK A01 T01430024  RH  044%=      5-min Rain = 0
KLE1 171656Z 02011KT 14/02 A3017 RMK A01 T01410023  RH  045%=      5-min Rain = 0
KLE1 171657Z 02009KT 14/02 A3017 RMK A01 T01400024  RH  045%=      5-min Rain = 0
KLE1 171658Z 01011KT 14/03 A3017 RMK A01 T01430026  RH  045%=      5-min Rain = 0
KLE1 171659Z 00010KT 15/03 A3017 RMK A01 T01450026  RH  045%=      5-min Rain = 0
KLE1 171700Z 36010KT 15/02 A3017 RMK A01 T01450024  RH  044%=      5-min Rain = 0
KLE1 171701Z 33011KT 14/03 A3017 RMK A01 T01440025  RH  045%=      5-min Rain = 0
KLE1 171702Z 35012KT 14/03 A3017 RMK A01 T01440025  RH  045%=      5-min Rain = 0
KLE1 171703Z 35011KT 14/02 A3017 RMK A01 T01430023  RH  044%=      5-min Rain = 0
KLE1 171704Z 35009KT 14/02 A3017 RMK A01 T01390022  RH  045%=      5-min Rain = 0
KLE1 171705Z 34011KT 14/02 A3017 RMK A01 T01390023  RH  046%=      5-min Rain = 0
KLE1 171706Z 35014KT 14/03 A3017 RMK A01 T01410025  RH  045%=      5-min Rain = 0
KLE1 171707Z 00013KT 14/03 A3017 RMK A01 T01440025  RH  045%=      5-min Rain = 0
KLE1 171708Z 36013KT 15/02 A3017 RMK A01 T01450024  RH  044%=      5-min Rain = 0
KLE1 171709Z 36015KT 14/02 A3017 RMK A01 T01430023  RH  044%=      5-min Rain = 0
KLE1 171710Z 35013KT 14/02 A3017 RMK A01 T01410022  RH  045%=      5-min Rain = 0
KLE1 171711Z 36012KT 14/02 A3017 RMK A01 T01400023  RH  045%=      5-min Rain = 0
KLE1 171712Z 36010KT 14/02 A3017 RMK A01 T01410024  RH  045%=      5-min Rain = 0
KLE1 171713Z 00010KT 14/02 A3017 RMK A01 T01420024  RH  045%=      5-min Rain = 0
KLE1 171714Z 00009KT 14/02 A3017 RMK A01 T01420023  RH  045%=      5-min Rain = 0
KLE1 171715Z 01008KT 14/02 A3016 RMK A01 T01420024  RH  045%=      5-min Rain = 0
KLE1 171716Z 01012KT 15/03 A3016 RMK A01 T01460026  RH  045%=      5-min Rain = 0
KLE1 171717Z 36013KT 15/03 A3016 RMK A01 T01480026  RH  044%=      5-min Rain = 0
KLE1 171718Z 35011KT 15/03 A3016 RMK A01 T01480025  RH  043%=      5-min Rain = 0
KLE1 171719Z 36009KT 15/02 A3016 RMK A01 T01460024  RH  044%=      5-min Rain = 0
KLE1 171720Z 01009KT 15/03 A3016 RMK A01 T01460025  RH  044%=      5-min Rain = 0
KLE1 171721Z 35010KT 15/03 A3016 RMK A01 T01490027  RH  044%=      5-min Rain = 0
KLE1 171722Z 01012KT 15/03 A3016 RMK A01 T01510026  RH  043%=      5-min Rain = 0
KLE1 171723Z 36012KT 15/03 A3016 RMK A01 T01500025  RH  043%=      5-min Rain = 0
KLE1 171724Z 01010KT 15/03 A3016 RMK A01 T01480025  RH  043%=      5-min Rain = 0
KLE1 171725Z 00010KT 15/02 A3016 RMK A01 T01470024  RH  043%=      5-min Rain = 0
KLE1 171726Z 36008KT 15/02 A3016 RMK A01 T01470024  RH  044%=      5-min Rain = 0
KLE1 171727Z 01008KT 15/02 A3016 RMK A01 T01460024  RH  044%=      5-min Rain = 0
KLE1 171728Z 01009KT 15/03 A3016 RMK A01 T01480026  RH  044%=      5-min Rain = 0
KLE1 171729Z 02009KT 15/03 A3016 RMK A01 T01500027  RH  043%=      5-min Rain = 0
KLE1 171730Z 02009KT 15/03 A3016 RMK A01 T01520026  RH  043%=      5-min Rain = 0
KLE1 171731Z 35013KT 15/03 A3016 RMK A01 T01510026  RH  043%=      5-min Rain = 0
KLE1 171732Z 36012KT 15/03 A3016 RMK A01 T01520025  RH  043%=      5-min Rain = 0
KLE1 171733Z 35008KT 15/03 A3016 RMK A01 T01520025  RH  042%=      5-min Rain = 0
KLE1 171734Z 01011KT 15/03 A3016 RMK A01 T01520026  RH  042%=      5-min Rain = 0
KLE1 171735Z 02009KT 15/03 A3016 RMK A01 T01530026  RH  042%=      5-min Rain = 0
KLE1 171736Z 01009KT 15/03 A3016 RMK A01 T01530025  RH  042%=      5-min Rain = 0
KLE1 171737Z 36011KT 15/03 A3016 RMK A01 T01510026  RH  043%=      5-min Rain = 0
KLE1 171738Z 36012KT 15/03 A3017 RMK A01 T01520025  RH  042%=      5-min Rain = 0
KLE1 171739Z 01011KT 15/03 A3017 RMK A01 T01520025  RH  042%=      5-min Rain = 0
KLE1 171740Z 01010KT 15/03 A3016 RMK A01 T01520025  RH  042%=      5-min Rain = 0
KLE1 171741Z 00012KT 15/03 A3016 RMK A01 T01520026  RH  043%=      5-min Rain = 0
KLE1 171742Z 00010KT 15/03 A3016 RMK A01 T01530026  RH  042%=      5-min Rain = 0
KLE1 171743Z 00009KT 15/03 A3016 RMK A01 T01540026  RH  042%=      5-min Rain = 0
KLE1 171744Z 01013KT 15/03 A3016 RMK A01 T01540025  RH  042%=      5-min Rain = 0
KLE1 171745Z 35013KT 15/03 A3016 RMK A01 T01540025  RH  042%=      5-min Rain = 0
KLE1 171746Z 35015KT 16/03 A3016 RMK A01 T01550026  RH  042%=      5-min Rain = 0
KLE1 171747Z 36015KT 16/03 A3016 RMK A01 T01560026  RH  041%=      5-min Rain = 0
KLE1 171748Z 36013KT 16/03 A3016 RMK A01 T01560025  RH  041%=      5-min Rain = 0
KLE1 171749Z 00013KT 15/02 A3016 RMK A01 T01530024  RH  042%=      5-min Rain = 0
KLE1 171750Z 01015KT 15/03 A3016 RMK A01 T01540026  RH  042%=      5-min Rain = 0
KLE1 171751Z 00014KT 16/03 A3016 RMK A01 T01560025  RH  041%=      5-min Rain = 0
KLE1 171752Z 01012KT 16/03 A3016 RMK A01 T01550026  RH  042%=      5-min Rain = 0
KLE1 171753Z 02011KT 16/03 A3016 RMK A01 T01560025  RH  041%=      5-min Rain = 0
KLE1 171754Z 01011G16KT 16/03 A3016 RMK A01 T01550026  RH  042%=      5-min Rain = 0
KLE1 171755Z 35016KT 16/03 A3016 RMK A01 T01580027  RH  041%=      5-min Rain = 0
KLE1 171756Z 35014KT 16/02 A3016 RMK A01 T01570024  RH  041%=      5-min Rain = 0
KLE1 171757Z 35015KT 16/03 A3016 RMK A01 T01560025  RH  041%=      5-min Rain = 0
KLE1 171758Z 34013G18KT 15/02 A3016 RMK A01 T01530023  RH  042%=      5-min Rain = 0
KLE1 171759Z 36010KT 15/03 A3016 RMK A01 T01520025  RH  042%=      5-min Rain = 0
KLE1 171800Z 35011KT 15/03 A3016 RMK A01 T01530025  RH  042%=      5-min Rain = 0
KLE1 171801Z 35014G24KT 16/03 A3016 RMK A01 T01570027  RH  042%=      5-min Rain = 0
KLE1 171802Z 35016KT 16/03 A3016 RMK A01 T01600027  RH  041%=      5-min Rain = 0
KLE1 171803Z 35015KT 16/03 A3016 RMK A01 T01590025  RH  040%=      5-min Rain = 0
KLE1 171804Z 36013KT 16/03 A3016 RMK A01 T01570025  RH  041%=      5-min Rain = 0
KLE1 171805Z 01012KT 16/03 A3016 RMK A01 T01570026  RH  041%=      5-min Rain = 0
KLE1 171806Z 35008KT 16/03 A3016 RMK A01 T01560025  RH  041%=      5-min Rain = 0
KLE1 171807Z 01009KT 16/03 A3016 RMK A01 T01560026  RH  042%=      5-min Rain = 0
KLE1 171808Z 00009KT 16/03 A3016 RMK A01 T01560025  RH  041%=      5-min Rain = 0
KLE1 171809Z 35013KT 16/03 A3016 RMK A01 T01570026  RH  041%=      5-min Rain = 0
KLE1 171810Z 36014KT 16/03 A3015 RMK A01 T01590025  RH  041%=      5-min Rain = 0
KLE1 171811Z 01016KT 16/03 A3015 RMK A01 T01590025  RH  040%=      5-min Rain = 0
KLE1 171812Z 01014KT 16/02 A3015 RMK A01 T01580024  RH  041%=      5-min Rain = 0
KLE1 171813Z 01013KT 16/03 A3016 RMK A01 T01570025  RH  041%=      5-min Rain = 0
KLE1 171814Z 01012KT 16/03 A3015 RMK A01 T01570025  RH  041%=      5-min Rain = 0
KLE1 171815Z 01009KT 16/03 A3015 RMK A01 T01580026  RH  041%=      5-min Rain = 0
KLE1 171816Z 35013KT 16/03 A3015 RMK A01 T01610027  RH  041%=      5-min Rain = 0
KLE1 171817Z 36012KT 16/03 A3015 RMK A01 T01620026  RH  040%=      5-min Rain = 0
KLE1 171818Z 01013KT 16/03 A3015 RMK A01 T01620026  RH  040%=      5-min Rain = 0
KLE1 171819Z 00013KT 16/03 A3015 RMK A01 T01610025  RH  040%=      5-min Rain = 0
KLE1 171820Z 01014KT 16/03 A3015 RMK A01 T01610025  RH  040%=      5-min Rain = 0
KLE1 171821Z 01014KT 16/03 A3015 RMK A01 T01620025  RH  040%=      5-min Rain = 0
KLE1 171822Z 36012KT 16/02 A3015 RMK A01 T01600024  RH  040%=      5-min Rain = 0
KLE1 171823Z 01010KT 16/03 A3015 RMK A01 T01600026  RH  041%=      5-min Rain = 0
KLE1 171824Z 35008KT 16/03 A3015 RMK A01 T01630027  RH  040%=      5-min Rain = 0
KLE1 171825Z 36011KT 16/03 A3015 RMK A01 T01630025  RH  040%=      5-min Rain = 0
KLE1 171826Z 35012KT 16/03 A3015 RMK A01 T01620025  RH  040%=      5-min Rain = 0
KLE1 171827Z 34008KT 16/02 A3015 RMK A01 T01590023  RH  040%=      5-min Rain = 0
KLE1 171828Z 35008KT 16/03 A3015 RMK A01 T01590025  RH  041%=      5-min Rain = 0
KLE1 171829Z 01009KT 16/03 A3015 RMK A01 T01600025  RH  040%=      5-min Rain = 0
KLE1 171830Z 02011G16KT 16/03 A3015 RMK A01 T01630027  RH  040%=      5-min Rain = 0
KLE1 171831Z 01011KT 17/03 A3015 RMK A01 T01670027  RH  039%=      5-min Rain = 0
KLE1 171832Z 01010KT 17/03 A3015 RMK A01 T01700027  RH  038%=      5-min Rain = 0
KLE1 171833Z 02013G18KT 17/02 A3015 RMK A01 T01680024  RH  038%=      5-min Rain = 0
KLE1 171834Z 01010KT 16/02 A3015 RMK A01 T01620022  RH  039%=      5-min Rain = 0
KLE1 171835Z 01009KT 16/02 A3015 RMK A01 T01600023  RH  040%=      5-min Rain = 0
KLE1 171836Z 36010KT 16/02 A3015 RMK A01 T01600024  RH  040%=      5-min Rain = 0
KLE1 171837Z 01010KT 16/02 A3014 RMK A01 T01610024  RH  040%=      5-min Rain = 0
KLE1 171838Z 36010G16KT 16/02 A3014 RMK A01 T01610023  RH  039%=      5-min Rain = 0
KLE1 171839Z 34015KT 16/02 A3014 RMK A01 T01620023  RH  039%=      5-min Rain = 0
KLE1 171840Z 33015KT 17/02 A3014 RMK A01 T01650022  RH  038%=      5-min Rain = 0
KLE1 171841Z 35013KT 17/02 A3014 RMK A01 T01670023  RH  038%=      5-min Rain = 0
KLE1 171842Z 35014KT 17/02 A3014 RMK A01 T01690023  RH  037%=      5-min Rain = 0
KLE1 171843Z 34013KT 17/02 A3014 RMK A01 T01680021  RH  037%=      5-min Rain = 0
KLE1 171844Z 33012KT 17/02 A3014 RMK A01 T01660021  RH  038%=      5-min Rain = 0
KLE1 171845Z 34012G17KT 16/02 A3014 RMK A01 T01640020  RH  038%=      5-min Rain = 0
KLE1 171846Z 34015KT 16/02 A3014 RMK A01 T01630021  RH  038%=      5-min Rain = 0
KLE1 171847Z 34010KT 16/02 A3014 RMK A01 T01640021  RH  038%=      5-min Rain = 0
KLE1 171848Z 34013KT 17/02 A3014 RMK A01 T01650022  RH  038%=      5-min Rain = 0
KLE1 171849Z 34010KT 17/02 A3014 RMK A01 T01650021  RH  038%=      5-min Rain = 0
KLE1 171850Z 35012G17KT 17/02 A3014 RMK A01 T01650021  RH  038%=      5-min Rain = 0
KLE1 171851Z 36014KT 17/02 A3014 RMK A01 T01660021  RH  038%=      5-min Rain = 0
KLE1 171852Z 01010KT 16/02 A3014 RMK A01 T01640019  RH  038%=      5-min Rain = 0
KLE1 171853Z 00010KT 16/02 A3014 RMK A01 T01630021  RH  038%=      5-min Rain = 0
KLE1 171854Z 36011KT 16/02 A3014 RMK A01 T01640021  RH  038%=      5-min Rain = 0
KLE1 171855Z 00009KT 17/02 A3014 RMK A01 T01650020  RH  038%=      5-min Rain = 0
KLE1 171856Z 01007KT 16/02 A3014 RMK A01 T01630019  RH  038%=      5-min Rain = 0
KLE1 171857Z 01005KT 16/02 A3014 RMK A01 T01620020  RH  038%=      5-min Rain = 0
KLE1 171858Z 35008KT 16/02 A3013 RMK A01 T01640022  RH  038%=      5-min Rain = 0
KLE1 171859Z 00011KT 17/02 A3013 RMK A01 T01670022  RH  038%=      5-min Rain = 0
KLE1 171900Z 01013KT 17/02 A3013 RMK A01 T01710023  RH  037%=      5-min Rain = 0
KLE1 171901Z 01012KT 17/02 A3013 RMK A01 T01700020  RH  036%=      5-min Rain = 0
KLE1 171902Z 00013KT 17/02 A3013 RMK A01 T01700021  RH  037%=      5-min Rain = 0
KLE1 171903Z 01010KT 17/02 A3013 RMK A01 T01680019  RH  037%=      5-min Rain = 0
KLE1 171904Z 01008KT 17/02 A3013 RMK A01 T01660018  RH  037%=      5-min Rain = 0
KLE1 171905Z 34009KT 17/02 A3013 RMK A01 T01650019  RH  037%=      5-min Rain = 0
KLE1 171906Z 35008G14KT 17/02 A3013 RMK A01 T01660018  RH  037%=      5-min Rain = 0
KLE1 171907Z 00013KT 17/02 A3013 RMK A01 T01660018  RH  037%=      5-min Rain = 0
KLE1 171908Z 35014KT 17/02 A3013 RMK A01 T01670017  RH  036%=      5-min Rain = 0
KLE1 171909Z 35012KT 17/02 A3013 RMK A01 T01670018  RH  037%=      5-min Rain = 0
KLE1 171910Z 35011KT 17/02 A3013 RMK A01 T01670018  RH  037%=      5-min Rain = 0
KLE1 171911Z 35009KT 17/02 A3012 RMK A01 T01660018  RH  037%=      5-min Rain = 0
KLE1 171912Z 34008KT 17/02 A3012 RMK A01 T01660018  RH  037%=      5-min Rain = 0
KLE1 171913Z 33009KT 17/02 A3012 RMK A01 T01660018  RH  037%=      5-min Rain = 0
KLE1 171914Z 32006KT 17/02 A3012 RMK A01 T01680019  RH  037%=      5-min Rain = 0
KLE1 171915Z 33007KT 17/02 A3012 RMK A01 T01680018  RH  036%=      5-min Rain = 0
KLE1 171916Z 34009KT 17/02 A3012 RMK A01 T01700017  RH  036%=      5-min Rain = 0
KLE1 171917Z 34011KT 17/02 A3012 RMK A01 T01700016  RH  036%=      5-min Rain = 0
KLE1 171918Z 34009KT 17/02 A3012 RMK A01 T01680015  RH  036%=      5-min Rain = 0
KLE1 171919Z 34013KT 17/02 A3012 RMK A01 T01680016  RH  036%=      5-min Rain = 0
KLE1 171920Z 34012KT 17/02 A3012 RMK A01 T01690015  RH  035%=      5-min Rain = 0
KLE1 171921Z 35012KT 17/02 A3012 RMK A01 T01690016  RH  036%=      5-min Rain = 0
KLE1 171922Z 35009KT 17/02 A3012 RMK A01 T01690015  RH  035%=      5-min Rain = 0
KLE1 171923Z 34008KT 17/02 A3011 RMK A01 T01690015  RH  035%=      5-min Rain = 0
KLE1 171924Z 33010KT 17/02 A3011 RMK A01 T01700018  RH  036%=      5-min Rain = 0
KLE1 171925Z 36010KT 17/02 A3011 RMK A01 T01730017  RH  035%=      5-min Rain = 0
KLE1 171926Z 01008KT 17/02 A3011 RMK A01 T01730015  RH  034%=      5-min Rain = 0
KLE1 171927Z 00007KT 17/02 A3011 RMK A01 T01710015  RH  035%=      5-min Rain = 0
KLE1 171928Z 00010G15KT 17/02 A3011 RMK A01 T01710015  RH  035%=      5-min Rain = 0
KLE1 171929Z 01012KT 17/02 A3011 RMK A01 T01710015  RH  035%=      5-min Rain = 0
KLE1 171930Z 01010KT 17/02 A3011 RMK A01 T01720015  RH  035%=      5-min Rain = 0
KLE1 171931Z 35010KT 17/02 A3011 RMK A01 T01730017  RH  035%=      5-min Rain = 0
KLE1 171932Z 00012KT 17/02 A3011 RMK A01 T01740017  RH  035%=      5-min Rain = 0
KLE1 171933Z 35009KT 17/02 A3011 RMK A01 T01730015  RH  034%=      5-min Rain = 0
KLE1 171934Z 35009KT 17/02 A3011 RMK A01 T01720015  RH  035%=      5-min Rain = 0
KLE1 171935Z 35008KT 17/02 A3011 RMK A01 T01700015  RH  035%=      5-min Rain = 0
KLE1 171936Z 36006KT 17/02 A301 RMK A01 T01700016  RH  035%=      5-min Rain = 0
KLE1 171937Z 00007KT 17/02 A301 RMK A01 T01710015  RH  035%=      5-min Rain = 0
KLE1 171938Z 36009KT 17/02 A301 RMK A01 T01720016  RH  035%=      5-min Rain = 0
KLE1 171939Z 03011KT 17/02 A301 RMK A01 T01730016  RH  035%=      5-min Rain = 0
KLE1 171940Z 03012KT 17/02 A301 RMK A01 T01740015  RH  034%=      5-min Rain = 0
KLE1 171941Z 03012KT 17/02 A301 RMK A01 T01720015  RH  035%=      5-min Rain = 0
KLE1 171942Z 02010KT 17/01 A301 RMK A01 T01700014  RH  035%=      5-min Rain = 0
KLE1 171943Z 02011KT 17/02 A301 RMK A01 T01700015  RH  035%=      5-min Rain = 0
KLE1 171944Z 02007KT 17/02 A301 RMK A01 T01700015  RH  035%=      5-min Rain = 0
KLE1 171945Z 06004KT 17/01 A301 RMK A01 T01680014  RH  036%=      5-min Rain = 0
KLE1 171946Z 35008KT 17/02 A301 RMK A01 T01670015  RH  036%=      5-min Rain = 0
KLE1 171947Z 01010KT 17/02 A3009 RMK A01 T01680015  RH  036%=      5-min Rain = 0
KLE1 171948Z 01009KT 17/02 A3009 RMK A01 T01690015  RH  035%=      5-min Rain = 0
KLE1 171949Z 02010KT 17/02 A3009 RMK A01 T01730016  RH  035%=      5-min Rain = 0
KLE1 171950Z 02010KT 17/02 A3009 RMK A01 T01740015  RH  034%=      5-min Rain = 0
KLE1 171951Z 01007KT 17/01 A3009 RMK A01 T01730014  RH  034%=      5-min Rain = 0
KLE1 171952Z 01007KT 17/02 A3009 RMK A01 T01720015  RH  035%=      5-min Rain = 0
KLE1 171953Z 00009G14KT 17/02 A3009 RMK A01 T01730016  RH  035%=      5-min Rain = 0
KLE1 171954Z 36012KT 18/02 A3009 RMK A01 T01760018  RH  035%=      5-min Rain = 0
KLE1 171955Z 35012KT 18/02 A3009 RMK A01 T01760016  RH  034%=      5-min Rain = 0
KLE1 171956Z 35009KT 17/02 A3009 RMK A01 T01740015  RH  034%=      5-min Rain = 0
KLE1 171957Z 35008KT 17/02 A3009 RMK A01 T01730015  RH  035%=      5-min Rain = 0
KLE1 171958Z 01008KT 17/02 A3009 RMK A01 T01720016  RH  035%=      5-min Rain = 0
KLE1 171959Z 36005KT 17/01 A3008 RMK A01 T01730014  RH  034%=      5-min Rain = 0
KLE1 172000Z 03005KT 17/02 A3008 RMK A01 T01740015  RH  034%=      5-min Rain = 0
KLE1 172001Z 03004KT 17/01 A3008 RMK A01 T01730014  RH  034%=      5-min Rain = 0
KLE1 172002Z 02004KT 17/02 A3008 RMK A01 T01720015  RH  035%=      5-min Rain = 0
KLE1 172003Z 02005KT 17/02 A3008 RMK A01 T01730016  RH  035%=      5-min Rain = 0
KLE1 172004Z 01004KT 17/02 A3008 RMK A01 T01740015  RH  034%=      5-min Rain = 0
KLE1 172005Z 01004KT 18/02 A3008 RMK A01 T01750015  RH  034%=      5-min Rain = 0
KLE1 172006Z 35007KT 18/02 A3008 RMK A01 T01750016  RH  034%=      5-min Rain = 0
KLE1 172007Z 35008KT 18/01 A3008 RMK A01 T01770014  RH  033%=      5-min Rain = 0
KLE1 172008Z 36009KT 18/01 A3008 RMK A01 T01770013  RH  033%=      5-min Rain = 0
KLE1 172009Z 00011KT 18/01 A3008 RMK A01 T01760012  RH  033%=      5-min Rain = 0
KLE1 172010Z 36012KT 18/01 A3008 RMK A01 T01760012  RH  033%=      5-min Rain = 0
KLE1 172011Z 36010KT 18/01 A3008 RMK A01 T01760013  RH  033%=      5-min Rain = 0
KLE1 172012Z 01008KT 18/01 A3008 RMK A01 T01780013  RH  033%=      5-min Rain = 0
KLE1 172013Z 01006KT 18/01 A3008 RMK A01 T01780012  RH  033%=      5-min Rain = 0
KLE1 172014Z 01006KT 18/01 A3008 RMK A01 T01770012  RH  033%=      5-min Rain = 0
KLE1 172015Z 01006KT 18/01 A3008 RMK A01 T01750012  RH  033%=      5-min Rain = 0
KLE1 172016Z 01005KT 17/01 A3008 RMK A01 T01730011  RH  034%=      5-min Rain = 0
KLE1 172017Z 36005KT 17/01 A3008 RMK A01 T01730012  RH  034%=      5-min Rain = 0
KLE1 172018Z 35008KT 17/01 A3008 RMK A01 T01730012  RH  034%=      5-min Rain = 0
KLE1 172019Z 35009KT 18/01 A3008 RMK A01 T01750013  RH  034%=      5-min Rain = 0
KLE1 172020Z 00009KT 18/01 A3008 RMK A01 T01770014  RH  033%=      5-min Rain = 0
KLE1 172021Z 01007KT 18/01 A3008 RMK A01 T01770013  RH  033%=      5-min Rain = 0
KLE1 172022Z 03007KT 18/01 A3007 RMK A01 T01760014  RH  033%=      5-min Rain = 0
KLE1 172023Z 04006KT 18/01 A3007 RMK A01 T01760013  RH  034%=      5-min Rain = 0
KLE1 172024Z 03006KT 18/01 A3007 RMK A01 T01750012  RH  033%=      5-min Rain = 0
KLE1 172025Z 02003KT 17/01 A3007 RMK A01 T01730011  RH  033%=      5-min Rain = 0
KLE1 172026Z 02004KT 17/01 A3007 RMK A01 T01720012  RH  034%=      5-min Rain = 0
KLE1 172027Z 34005KT 18/01 A3007 RMK A01 T01750014  RH  034%=      5-min Rain = 0
KLE1 172028Z 31009KT 18/01 A3007 RMK A01 T01770013  RH  033%=      5-min Rain = 0
KLE1 172029Z 31011KT 18/01 A3007 RMK A01 T01780011  RH  033%=      5-min Rain = 0
KLE1 172030Z 34009KT 18/01 A3007 RMK A01 T01770011  RH  033%=      5-min Rain = 0
KLE1 172031Z 00008KT 18/01 A3007 RMK A01 T01790012  RH  033%=      5-min Rain = 0
KLE1 172032Z 00010G15KT 18/01 A3007 RMK A01 T01800011  RH  032%=      5-min Rain = 0
KLE1 172033Z 34011KT 18/01 A3007 RMK A01 T01800011  RH  032%=      5-min Rain = 0
KLE1 172034Z 34010KT 18/01 A3007 RMK A01 T01810009  RH  032%=      5-min Rain = 0
KLE1 172035Z 35009KT 18/01 A3007 RMK A01 T01800009  RH  032%=      5-min Rain = 0
KLE1 172036Z 36013KT 18/01 A3007 RMK A01 T01790010  RH  032%=      5-min Rain = 0
KLE1 172037Z 00011KT 18/01 A3007 RMK A01 T01780010  RH  032%=      5-min Rain = 0
KLE1 172038Z 00009KT 18/01 A3007 RMK A01 T01790011  RH  032%=      5-min Rain = 0
KLE1 172039Z 01008KT 18/01 A3007 RMK A01 T01780010  RH  032%=      5-min Rain = 0
KLE1 172040Z 00009KT 18/01 A3007 RMK A01 T01780009  RH  032%=      5-min Rain = 0
KLE1 172041Z 00007KT 18/01 A3007 RMK A01 T01770010  RH  033%=      5-min Rain = 0
KLE1 172042Z 00006KT 18/01 A3007 RMK A01 T01770011  RH  033%=      5-min Rain = 0
KLE1 172043Z 02007KT 18/01 A3007 RMK A01 T01760010  RH  033%=      5-min Rain = 0
KLE1 172044Z 01007KT 18/01 A3007 RMK A01 T01750011  RH  033%=      5-min Rain = 0
KLE1 172045Z 34011KT 18/01 A3007 RMK A01 T01780012  RH  033%=      5-min Rain = 0
KLE1 172046Z 35012KT 18/01 A3007 RMK A01 T01790011  RH  032%=      5-min Rain = 0
KLE1 172047Z 35010KT 18/01 A3007 RMK A01 T01790010  RH  032%=      5-min Rain = 0
KLE1 172048Z 33008KT 18/01 A3007 RMK A01 T01780011  RH  032%=      5-min Rain = 0
KLE1 172049Z 35009KT 18/01 A3007 RMK A01 T01790012  RH  033%=      5-min Rain = 0
KLE1 172050Z 36008KT 18/01 A3007 RMK A01 T01790012  RH  033%=      5-min Rain = 0
KLE1 172051Z 02008KT 18/01 A3007 RMK A01 T01790012  RH  032%=      5-min Rain = 0
KLE1 172052Z 01007KT 18/01 A3007 RMK A01 T01790011  RH  032%=      5-min Rain = 0
KLE1 172053Z 35007KT 18/01 A3007 RMK A01 T01790013  RH  033%=      5-min Rain = 0
KLE1 172054Z 33008KT 18/01 A3007 RMK A01 T01790013  RH  033%=      5-min Rain = 0
KLE1 172055Z 35008KT 18/01 A3007 RMK A01 T01800012  RH  032%=      5-min Rain = 0
KLE1 172056Z 34009KT 18/01 A3007 RMK A01 T01790012  RH  032%=      5-min Rain = 0
KLE1 172057Z 33008KT 18/01 A3007 RMK A01 T01760011  RH  033%=      5-min Rain = 0
KLE1 172058Z 35005KT 18/01 A3007 RMK A01 T01760012  RH  033%=      5-min Rain = 0
KLE1 172059Z 33003KT 18/01 A3007 RMK A01 T01760011  RH  033%=      5-min Rain = 0
KLE1 172100Z 31004KT 18/01 A3006 RMK A01 T01760012  RH  033%=      5-min Rain = 0
KLE1 172101Z 32004KT 18/01 A3006 RMK A01 T01770012  RH  033%=      5-min Rain = 0
KLE1 172102Z 33005KT 18/01 A3006 RMK A01 T01780012  RH  033%=      5-min Rain = 0
KLE1 172103Z 00006KT 18/01 A3006 RMK A01 T01790013  RH  033%=      5-min Rain = 0
KLE1 172104Z 04002KT 18/01 A3006 RMK A01 T01790012  RH  032%=      5-min Rain = 0
KLE1 172105Z 36001KT 18/01 A3006 RMK A01 T01790011  RH  032%=      5-min Rain = 0
KLE1 172106Z 04003KT 18/01 A3006 RMK A01 T01790012  RH  032%=      5-min Rain = 0
KLE1 172107Z 02004KT 18/01 A3006 RMK A01 T01800011  RH  032%=      5-min Rain = 0
KLE1 172108Z 34006KT 18/01 A3006 RMK A01 T01800011  RH  032%=      5-min Rain = 0
KLE1 172109Z 00008KT 18/01 A3006 RMK A01 T01820012  RH  032%=      5-min Rain = 0
KLE1 172110Z 01008KT 18/01 A3006 RMK A01 T01830013  RH  032%=      5-min Rain = 0
KLE1 172111Z 36007KT 18/01 A3006 RMK A01 T01830013  RH  032%=      5-min Rain = 0
KLE1 172112Z 35008KT 18/01 A3006 RMK A01 T01810012  RH  032%=      5-min Rain = 0
KLE1 172113Z 00011KT 18/01 A3006 RMK A01 T01810011  RH  032%=      5-min Rain = 0
KLE1 172114Z 01011KT 18/01 A3006 RMK A01 T01810010  RH  032%=      5-min Rain = 0
KLE1 172115Z 01010KT 18/01 A3006 RMK A01 T01800009  RH  032%=      5-min Rain = 0
KLE1 172116Z 36009KT 18/01 A3006 RMK A01 T01800010  RH  032%=      5-min Rain = 0
KLE1 172117Z 35006KT 18/01 A3006 RMK A01 T01800010  RH  032%=      5-min Rain = 0
KLE1 172118Z 34006KT 18/01 A3006 RMK A01 T01790010  RH  032%=      5-min Rain = 0
KLE1 172119Z 34006KT 18/01 A3006 RMK A01 T01790010  RH  032%=      5-min Rain = 0
KLE1 172120Z 35009KT 18/01 A3006 RMK A01 T01790010  RH  032%=      5-min Rain = 0
KLE1 172121Z 00008KT 18/01 A3006 RMK A01 T01780009  RH  032%=      5-min Rain = 0
KLE1 172122Z 01006KT 18/01 A3006 RMK A01 T01770009  RH  032%=      5-min Rain = 0
KLE1 172123Z 35006KT 18/01 A3006 RMK A01 T01770009  RH  032%=      5-min Rain = 0
KLE1 172124Z 32005KT 18/01 A3006 RMK A01 T01780009  RH  032%=      5-min Rain = 0
KLE1 172125Z 33004KT 18/01 A3006 RMK A01 T01790008  RH  032%=      5-min Rain = 0
KLE1 172126Z 31005KT 18/01 A3006 RMK A01 T01790010  RH  032%=      5-min Rain = 0
KLE1 172127Z 33004KT 18/01 A3006 RMK A01 T01790011  RH  032%=      5-min Rain = 0
KLE1 172128Z 01007KT 18/01 A3006 RMK A01 T01790010  RH  032%=      5-min Rain = 0
KLE1 172129Z 01004KT 18/01 A3006 RMK A01 T01790009  RH  032%=      5-min Rain = 0
KLE1 172130Z 01004KT 18/01 A3006 RMK A01 T01780009  RH  032%=      5-min Rain = 0
KLE1 172131Z 36004KT 18/01 A3006 RMK A01 T01780009  RH  032%=      5-min Rain = 0
KLE1 172132Z 00009KT 18/01 A3006 RMK A01 T01780010  RH  032%=      5-min Rain = 0
KLE1 172133Z 01008KT 18/01 A3006 RMK A01 T01790010  RH  032%=      5-min Rain = 0
KLE1 172134Z 00010KT 18/01 A3006 RMK A01 T01800010  RH  032%=      5-min Rain = 0
KLE1 172135Z 00009KT 18/01 A3006 RMK A01 T01820008  RH  031%=      5-min Rain = 0
KLE1 172136Z 01009KT 18/01 A3006 RMK A01 T01810007  RH  031%=      5-min Rain = 0
KLE1 172137Z 00009KT 18/01 A3006 RMK A01 T01800006  RH  031%=      5-min Rain = 0
KLE1 172138Z 00007KT 18/00 A3006 RMK A01 T01800004  RH  031%=      5-min Rain = 0
KLE1 172139Z 36004KT 18/00 A3006 RMK A01 T01780004  RH  031%=      5-min Rain = 0
KLE1 172140Z 01005KT 18/00 A3006 RMK A01 T01780004  RH  031%=      5-min Rain = 0
KLE1 172141Z 02005KT 18/01 A3006 RMK A01 T01790005  RH  031%=      5-min Rain = 0
KLE1 172142Z 02005KT 18/01 A3006 RMK A01 T01800006  RH  031%=      5-min Rain = 0
KLE1 172143Z 36004KT 18/01 A3006 RMK A01 T01790006  RH  031%=      5-min Rain = 0
KLE1 172144Z 35004KT 18/01 A3006 RMK A01 T01800007  RH  031%=      5-min Rain = 0
KLE1 172145Z 34004KT 18/01 A3006 RMK A01 T01810007  RH  031%=      5-min Rain = 0
KLE1 172146Z 35006KT 18/01 A3006 RMK A01 T01810007  RH  031%=      5-min Rain = 0
KLE1 172147Z 35008KT 18/01 A3006 RMK A01 T01810005  RH  031%=      5-min Rain = 0
KLE1 172148Z 35009KT 18/00 A3006 RMK A01 T01800003  RH  030%=      5-min Rain = 0
KLE1 172149Z 33008KT 18/00 A3006 RMK A01 T01790003  RH  030%=      5-min Rain = 0
KLE1 172150Z 33007KT 18/00 A3006 RMK A01 T01790004  RH  031%=      5-min Rain = 0
KLE1 172151Z 35007KT 18/00 A3006 RMK A01 T01780004  RH  031%=      5-min Rain = 0
KLE1 172152Z 34006KT 18/00 A3006 RMK A01 T01790004  RH  031%=      5-min Rain = 0
KLE1 172153Z 34007KT 18/01 A3006 RMK A01 T01800005  RH  031%=      5-min Rain = 0
KLE1 172154Z 36009KT 18/00 A3006 RMK A01 T01810004  RH  030%=      5-min Rain = 0
KLE1 172155Z 36008KT 18/00 A3006 RMK A01 T01810004  RH  030%=      5-min Rain = 0
KLE1 172156Z 34007KT 18/00 A3006 RMK A01 T01800004  RH  030%=      5-min Rain = 0
KLE1 172157Z 35009KT 18/00 A3006 RMK A01 T01790004  RH  031%=      5-min Rain = 0
KLE1 172158Z 34009KT 18/00 A3006 RMK A01 T01780004  RH  031%=      5-min Rain = 0
KLE1 172159Z 35008KT 18/00 A3006 RMK A01 T01780003  RH  031%=      5-min Rain = 0
KLE1 172200Z 35007KT 18/00 A3006 RMK A01 T01770003  RH  031%=      5-min Rain = 0
KLE1 172201Z 00005KT 18/00 A3006 RMK A01 T01770004  RH  031%=      5-min Rain = 0
KLE1 172202Z 01005KT 18/00 A3006 RMK A01 T01770004  RH  031%=      5-min Rain = 0
KLE1 172203Z 35005KT 18/00 A3006 RMK A01 T01770004  RH  031%=      5-min Rain = 0
KLE1 172204Z 35005KT 18/01 A3006 RMK A01 T01770005  RH  031%=      5-min Rain = 0
KLE1 172205Z 01005KT 18/01 A3006 RMK A01 T01780005  RH  031%=      5-min Rain = 0
KLE1 172206Z 01004KT 18/01 A3006 RMK A01 T01780005  RH  031%=      5-min Rain = 0
KLE1 172207Z 35004KT 18/00 A3006 RMK A01 T01780004  RH  031%=      5-min Rain = 0
KLE1 172208Z 35004KT 18/01 A3006 RMK A01 T01780005  RH  031%=      5-min Rain = 0
KLE1 172209Z 35007KT 18/01 A3006 RMK A01 T01780005  RH  031%=      5-min Rain = 0
KLE1 172210Z 00006KT 18/01 A3006 RMK A01 T01780006  RH  031%=      5-min Rain = 0
KLE1 172211Z 00006KT 18/01 A3006 RMK A01 T01770006  RH  031%=      5-min Rain = 0
KLE1 172212Z 36007KT 18/01 A3006 RMK A01 T01780006  RH  031%=      5-min Rain = 0
KLE1 172213Z 35005KT 18/00 A3006 RMK A01 T01790004  RH  031%=      5-min Rain = 0
KLE1 172214Z 33004KT 18/01 A3006 RMK A01 T01780005  RH  031%=      5-min Rain = 0
KLE1 172215Z 32007KT 18/01 A3006 RMK A01 T01800007  RH  031%=      5-min Rain = 0
KLE1 172216Z 34007KT 18/01 A3006 RMK A01 T01800006  RH  031%=      5-min Rain = 0
KLE1 172217Z 34007KT 18/00 A3006 RMK A01 T01800004  RH  030%=      5-min Rain = 0
KLE1 172218Z 35006KT 18/00 A3006 RMK A01 T01790002  RH  030%=      5-min Rain = 0
KLE1 172219Z 34007KT 18/00 A3006 RMK A01 T01780002  RH  030%=      5-min Rain = 0
KLE1 172220Z 34005KT 18/00 A3006 RMK A01 T01770003  RH  031%=      5-min Rain = 0
KLE1 172221Z 35004KT 18/00 A3006 RMK A01 T01760003  RH  031%=      5-min Rain = 0
KLE1 172222Z 36003KT 18/00 A3006 RMK A01 T01760003  RH  031%=      5-min Rain = 0
KLE1 172223Z 01004KT 18/00 A3006 RMK A01 T01760003  RH  031%=      5-min Rain = 0
KLE1 172224Z 00005KT 18/00 A3006 RMK A01 T01760002  RH  031%=      5-min Rain = 0
KLE1 172225Z 00005KT 18/00 A3006 RMK A01 T01760002  RH  031%=      5-min Rain = 0
KLE1 172226Z 35005KT 18/00 A3006 RMK A01 T01760003  RH  031%=      5-min Rain = 0
KLE1 172227Z 35003KT 18/00 A3006 RMK A01 T01760004  RH  031%=      5-min Rain = 0
KLE1 172228Z 01004KT 18/00 A3006 RMK A01 T01760004  RH  031%=      5-min Rain = 0
KLE1 172229Z 00006KT 18/00 A3006 RMK A01 T01760004  RH  031%=      5-min Rain = 0
KLE1 172230Z 01005KT 18/00 A3006 RMK A01 T01750004  RH  031%=      5-min Rain = 0
KLE1 172231Z 01005KT 18/00 A3006 RMK A01 T01750003  RH  031%=      5-min Rain = 0
KLE1 172232Z 03005KT 17/00 A3006 RMK A01 T01740004  RH  032%=      5-min Rain = 0
KLE1 172233Z 02007KT 17/00 A3006 RMK A01 T01740004  RH  032%=      5-min Rain = 0
KLE1 172234Z 00006KT 17/01 A3006 RMK A01 T01740005  RH  032%=      5-min Rain = 0
KLE1 172235Z 35006KT 17/01 A3006 RMK A01 T01740005  RH  032%=      5-min Rain = 0
KLE1 172236Z 35005KT 17/01 A3006 RMK A01 T01740005  RH  032%=      5-min Rain = 0
KLE1 172237Z 35004KT 17/00 A3006 RMK A01 T01740004  RH  032%=      5-min Rain = 0
KLE1 172238Z 36006KT 17/01 A3006 RMK A01 T01740005  RH  032%=      5-min Rain = 0
KLE1 172239Z 36007KT 17/00 A3006 RMK A01 T01740004  RH  032%=      5-min Rain = 0
KLE1 172240Z 35006KT 17/00 A3006 RMK A01 T01730004  RH  032%=      5-min Rain = 0
KLE1 172241Z 35006KT 17/00 A3006 RMK A01 T01730004  RH  032%=      5-min Rain = 0
KLE1 172242Z 35006KT 17/00 A3006 RMK A01 T01730004  RH  032%=      5-min Rain = 0
KLE1 172243Z 35005KT 17/01 A3006 RMK A01 T01730005  RH  032%=      5-min Rain = 0
KLE1 172244Z 35005KT 17/00 A3006 RMK A01 T01720004  RH  032%=      5-min Rain = 0
KLE1 172245Z 35005KT 17/00 A3006 RMK A01 T01720004  RH  032%=      5-min Rain = 0
KLE1 172246Z 34004KT 17/00 A3006 RMK A01 T01720004  RH  032%=      5-min Rain = 0
KLE1 172247Z 34004KT 17/00 A3006 RMK A01 T01720004  RH  032%=      5-min Rain = 0
KLE1 172248Z 33005KT 17/01 A3006 RMK A01 T01720005  RH  032%=      5-min Rain = 0
KLE1 172249Z 34004KT 17/00 A3006 RMK A01 T01720004  RH  032%=      5-min Rain = 0
KLE1 172250Z 34004KT 17/00 A3006 RMK A01 T01710004  RH  032%=      5-min Rain = 0
KLE1 172251Z 34003KT 17/01 A3006 RMK A01 T01720005  RH  032%=      5-min Rain = 0
KLE1 172252Z 02004KT 17/00 A3006 RMK A01 T01710004  RH  032%=      5-min Rain = 0
KLE1 172253Z 02005KT 17/00 A3006 RMK A01 T01710004  RH  032%=      5-min Rain = 0
KLE1 172254Z 01005KT 17/01 A3006 RMK A01 T01700005  RH  033%=      5-min Rain = 0
KLE1 172255Z 01006KT 17/01 A3006 RMK A01 T01690005  RH  033%=      5-min Rain = 0
KLE1 172256Z 02006KT 17/01 A3007 RMK A01 T01680005  RH  033%=      5-min Rain = 0
KLE1 172257Z 02006KT 17/01 A3007 RMK A01 T01680005  RH  033%=      5-min Rain = 0
KLE1 172258Z 02006KT 17/01 A3007 RMK A01 T01670005  RH  033%=      5-min Rain = 0
KLE1 172259Z 01005KT 17/01 A3007 RMK A01 T01660005  RH  034%=      5-min Rain = 0
KLE1 172300Z 02006KT 17/01 A3007 RMK A01 T01660005  RH  034%=      5-min Rain = 0
KLE1 172301Z 02005KT 17/01 A3007 RMK A01 T01660005  RH  034%=      5-min Rain = 0
KLE1 172302Z 01005KT 17/01 A3007 RMK A01 T01650005  RH  034%=      5-min Rain = 0
KLE1 172303Z 01006KT 16/00 A3007 RMK A01 T01640004  RH  034%=      5-min Rain = 0
KLE1 172304Z 01005KT 16/01 A3007 RMK A01 T01640005  RH  034%=      5-min Rain = 0
KLE1 172305Z 01005KT 16/01 A3007 RMK A01 T01640005  RH  034%=      5-min Rain = 0
KLE1 172306Z 01007KT 16/00 A3007 RMK A01 T01630004  RH  034%=      5-min Rain = 0
KLE1 172307Z 01006KT 16/00 A3007 RMK A01 T01630003  RH  034%=      5-min Rain = 0
KLE1 172308Z 01006KT 16/00 A3007 RMK A01 T01620003  RH  034%=      5-min Rain = 0
KLE1 172309Z 01006KT 16/00 A3007 RMK A01 T01620003  RH  034%=      5-min Rain = 0
KLE1 172310Z 01005KT 16/00 A3007 RMK A01 T01620003  RH  034%=      5-min Rain = 0
KLE1 172311Z 01005KT 16/00 A3007 RMK A01 T01620003  RH  034%=      5-min Rain = 0
KLE1 172312Z 01005KT 16/00 A3007 RMK A01 T01610003  RH  034%=      5-min Rain = 0
KLE1 172313Z 01005KT 16/00 A3007 RMK A01 T01600002  RH  034%=      5-min Rain = 0
KLE1 172314Z 01005KT 16/00 A3007 RMK A01 T01600003  RH  034%=      5-min Rain = 0
KLE1 172315Z 01004KT 16/00 A3007 RMK A01 T01590002  RH  034%=      5-min Rain = 0
KLE1 172316Z 01004KT 16/00 A3007 RMK A01 T01590002  RH  034%=      5-min Rain = 0
KLE1 172317Z 01004KT 16/00 A3007 RMK A01 T01590002  RH  035%=      5-min Rain = 0
KLE1 172318Z 01004KT 16/00 A3007 RMK A01 T01580002  RH  035%=      5-min Rain = 0
KLE1 172319Z 01004KT 16/00 A3007 RMK A01 T01580002  RH  035%=      5-min Rain = 0
KLE1 172320Z 00003KT 16/00 A3007 RMK A01 T01580003  RH  035%=      5-min Rain = 0
KLE1 172321Z 01002KT 16/00 A3007 RMK A01 T01580002  RH  035%=      5-min Rain = 0
KLE1 172322Z 01003KT 16/00 A3007 RMK A01 T01580002  RH  035%=      5-min Rain = 0
KLE1 172323Z 01003KT 16/00 A3007 RMK A01 T01590003  RH  035%=      5-min Rain = 0
KLE1 172324Z 01003KT 16/00 A3007 RMK A01 T01590003  RH  035%=      5-min Rain = 0
KLE1 172325Z 00003KT 16/00 A3007 RMK A01 T01590002  RH  034%=      5-min Rain = 0
KLE1 172326Z 01003KT 16/00 A3007 RMK A01 T01590002  RH  034%=      5-min Rain = 0
KLE1 172327Z 01003KT 16/00 A3007 RMK A01 T01590003  RH  035%=      5-min Rain = 0
KLE1 172328Z 01003KT 16/00 A3007 RMK A01 T01590003  RH  035%=      5-min Rain = 0
KLE1 172329Z 01002KT 16/00 A3007 RMK A01 T01590002  RH  035%=      5-min Rain = 0
KLE1 172330Z 36002KT 16/00 A3007 RMK A01 T01590003  RH  035%=      5-min Rain = 0
KLE1 172331Z 00003KT 16/00 A3007 RMK A01 T01590002  RH  034%=      5-min Rain = 0
KLE1 172332Z 36003KT 16/00 A3007 RMK A01 T01590002  RH  034%=      5-min Rain = 0
KLE1 172333Z 36002KT 16/00 A3007 RMK A01 T01600002  RH  034%=      5-min Rain = 0
KLE1 172334Z 01002KT 16/00 A3007 RMK A01 T01590002  RH  034%=      5-min Rain = 0
KLE1 172335Z 03002KT 16/00 A3007 RMK A01 T01580002  RH  034%=      5-min Rain = 0
KLE1 172336Z 02002KT 16/00 A3007 RMK A01 T01580002  RH  035%=      5-min Rain = 0
KLE1 172337Z 02002KT 16/00 A3007 RMK A01 T01570002  RH  035%=      5-min Rain = 0
KLE1 172338Z 02002KT 16/00 A3007 RMK A01 T01570002  RH  035%=      5-min Rain = 0
KLE1 172339Z 01002KT 16/00 A3007 RMK A01 T01570002  RH  035%=      5-min Rain = 0
KLE1 172340Z 00002KT 16/00 A3007 RMK A01 T01560002  RH  035%=      5-min Rain = 0
KLE1 172341Z 36003KT 16/00 A3007 RMK A01 T01560003  RH  035%=      5-min Rain = 0
KLE1 172342Z 01003KT 16/00 A3007 RMK A01 T01550003  RH  035%=      5-min Rain = 0
KLE1 172343Z 01003KT 16/00 A3007 RMK A01 T01550003  RH  036%=      5-min Rain = 0
KLE1 172344Z 01003KT 15/00 A3007 RMK A01 T01540003  RH  036%=      5-min Rain = 0
KLE1 172345Z 02003KT 15/00 A3007 RMK A01 T01530002  RH  036%=      5-min Rain = 0
KLE1 172346Z 02003KT 15/00 A3007 RMK A01 T01530003  RH  036%=      5-min Rain = 0
KLE1 172347Z 02002KT 15/00 A3007 RMK A01 T01530003  RH  036%=      5-min Rain = 0
KLE1 172348Z 03002KT 15/00 A3007 RMK A01 T01530003  RH  036%=      5-min Rain = 0
KLE1 172349Z 03002KT 15/00 A3007 RMK A01 T01540003  RH  036%=      5-min Rain = 0
KLE1 172350Z 03002KT 16/00 A3007 RMK A01 T01550002  RH  035%=      5-min Rain = 0
KLE1 172351Z 02002KT 16/00 A3007 RMK A01 T01550003  RH  035%=      5-min Rain = 0
KLE1 172352Z 02002KT 16/00 A3007 RMK A01 T01550003  RH  035%=      5-min Rain = 0
KLE1 172353Z 01001KT 16/00 A3007 RMK A01 T01550003  RH  035%=      5-min Rain = 0
KLE1 172354Z 36002KT 16/00 A3007 RMK A01 T01550003  RH  036%=      5-min Rain = 0
KLE1 172355Z 36002KT 16/00 A3007 RMK A01 T01550003  RH  036%=      5-min Rain = 0
KLE1 172356Z 36003KT 16/00 A3007 RMK A01 T01550004  RH  036%=      5-min Rain = 0
KLE1 172357Z 36003KT 15/00 A3007 RMK A01 T01540003  RH  036%=      5-min Rain = 0
KLE1 172358Z 00003KT 15/00 A3007 RMK A01 T01530003  RH  036%=      5-min Rain = 0
KLE1 172359Z 00003KT 15/00 A3007 RMK A01 T01520003  RH  036%=      5-min Rain = 0
KLE1 180000Z 00003KT 15/00 A3007 RMK A01 T01510003  RH  036%=      5-min Rain = 0
KLE1 180001Z 01002KT 15/00 A3007 RMK A01 T01510004  RH  037%=      5-min Rain = 0
KLE1 180002Z 01002KT 15/00 A3007 RMK A01 T01510004  RH  037%=      5-min Rain = 0
KLE1 180003Z 02002KT 15/00 A3007 RMK A01 T01510003  RH  036%=      5-min Rain = 0
KLE1 180004Z 01002KT 15/00 A3007 RMK A01 T01530003  RH  036%=      5-min Rain = 0
KLE1 180005Z 01002KT 15/00 A3007 RMK A01 T01530003  RH  036%=      5-min Rain = 0
KLE1 180006Z 01002KT 15/00 A3007 RMK A01 T01520003  RH  036%=      5-min Rain = 0
KLE1 180007Z 03001KT 15/00 A3007 RMK A01 T01510003  RH  036%=      5-min Rain = 0
KLE1 180008Z 04001KT 15/00 A3007 RMK A01 T01510003  RH  036%=      5-min Rain = 0
KLE1 180009Z 04001KT 15/00 A3007 RMK A01 T01510003  RH  036%=      5-min Rain = 0
KLE1 180010Z 04002KT 15/00 A3007 RMK A01 T01520003  RH  036%=      5-min Rain = 0
KLE1 180011Z 04002KT 15/00 A3007 RMK A01 T01520003  RH  036%=      5-min Rain = 0
KLE1 180012Z 04002KT 15/00 A3007 RMK A01 T01520003  RH  036%=      5-min Rain = 0
KLE1 180013Z 04002KT 15/00 A3007 RMK A01 T01520003  RH  036%=      5-min Rain = 0
KLE1 180014Z 03002KT 15/00 A3007 RMK A01 T01510003  RH  036%=      5-min Rain = 0
KLE1 180015Z 03002KT 15/00 A3007 RMK A01 T01510003  RH  036%=      5-min Rain = 0
KLE1 180016Z 04003KT 15/00 A3007 RMK A01 T01510003  RH  036%=      5-min Rain = 0
KLE1 180017Z 04003KT 15/00 A3007 RMK A01 T01510003  RH  036%=      5-min Rain = 0
KLE1 180018Z 04003KT 15/00 A3007 RMK A01 T01490002  RH  037%=      5-min Rain = 0
KLE1 180019Z 04003KT 15/00 A3007 RMK A01 T01470002  RH  037%=      5-min Rain = 0
KLE1 180020Z 03003KT 15/00 A3007 RMK A01 T01450002  RH  037%=      5-min Rain = 0
KLE1 180021Z 03003KT 14/00 A3007 RMK A01 T01430002  RH  038%=      5-min Rain = 0
KLE1 180022Z 03003KT 14/00 A3007 RMK A01 T01410001  RH  038%=      5-min Rain = 0
KLE1 180023Z 03003KT 14/00 A3007 RMK A01 T01410002  RH  039%=      5-min Rain = 0
KLE1 180024Z 03002KT 14/00 A3007 RMK A01 T01410002  RH  038%=      5-min Rain = 0
KLE1 180025Z 03002KT 14/00 A3007 RMK A01 T01420002  RH  038%=      5-min Rain = 0
KLE1 180026Z 03002KT 14/00 A3007 RMK A01 T01420002  RH  038%=      5-min Rain = 0
KLE1 180027Z 02002KT 14/00 A3007 RMK A01 T01410002  RH  039%=      5-min Rain = 0
KLE1 180028Z 02002KT 14/00 A3007 RMK A01 T01400002  RH  039%=      5-min Rain = 0
KLE1 180029Z 03002KT 14/00 A3007 RMK A01 T01400002  RH  039%=      5-min Rain = 0
KLE1 180030Z 04002KT 14/00 A3007 RMK A01 T01390002  RH  039%=      5-min Rain = 0
KLE1 180031Z 05002KT 14/00 A3007 RMK A01 T01410002  RH  039%=      5-min Rain = 0
KLE1 180032Z 05002KT 14/00 A3007 RMK A01 T01420002  RH  038%=      5-min Rain = 0
KLE1 180033Z 05002KT 14/00 A3007 RMK A01 T01440002  RH  038%=      5-min Rain = 0
KLE1 180034Z 06002KT 15/00 A3007 RMK A01 T01450002  RH  038%=      5-min Rain = 0
KLE1 180035Z 06002KT 15/00 A3007 RMK A01 T01460002  RH  037%=      5-min Rain = 0
KLE1 180036Z 06002KT 15/00 A3007 RMK A01 T01450002  RH  037%=      5-min Rain = 0
KLE1 180037Z 06002KT 15/00 A3007 RMK A01 T01450002  RH  037%=      5-min Rain = 0
KLE1 180038Z 05002KT 15/00 A3007 RMK A01 T01450001  RH  037%=      5-min Rain = 0
KLE1 180039Z 05002KT 14/00 A3007 RMK A01 T01440001  RH  038%=      5-min Rain = 0
KLE1 180040Z 05002KT 14/00 A3007 RMK A01 T014200-0  RH  038%=      5-min Rain = 0
KLE1 180041Z 05002KT 14/00 A3007 RMK A01 T014000-0  RH  038%=      5-min Rain = 0
KLE1 180042Z 06002KT 14/00 A3007 RMK A01 T01400000  RH  038%=      5-min Rain = 0
KLE1 180043Z 06002KT 14/00 A3007 RMK A01 T013900-0  RH  038%=      5-min Rain = 0
KLE1 180044Z 06002KT 14/00 A3007 RMK A01 T013800-0  RH  039%=      5-min Rain = 0
KLE1 180045Z 06002KT 14/00 A3007 RMK A01 T013700-0  RH  039%=      5-min Rain = 0
KLE1 180046Z 06002KT 14/00 A3007 RMK A01 T013700-0  RH  039%=      5-min Rain = 0
KLE1 180047Z 05002KT 14/00 A3007 RMK A01 T013700-0  RH  039%=      5-min Rain = 0
KLE1 180048Z 05002KT 14/00 A3007 RMK A01 T013700-0  RH  039%=      5-min Rain = 0
KLE1 180049Z 05001KT 14/00 A3007 RMK A01 T013800-0  RH  039%=      5-min Rain = 0
KLE1 180050Z 06002KT 14/M00 A3007 RMK A01 T01371001  RH  039%=      5-min Rain = 0
KLE1 180051Z 06002KT 14/M00 A3007 RMK A01 T01371001  RH  039%=      5-min Rain = 0
KLE1 180052Z 07002KT 14/M00 A3007 RMK A01 T01371001  RH  039%=      5-min Rain = 0
KLE1 180053Z 07002KT 14/M00 A3007 RMK A01 T01361001  RH  039%=      5-min Rain = 0
KLE1 180054Z 07002KT 14/M00 A3007 RMK A01 T01361001  RH  039%=      5-min Rain = 0
KLE1 180055Z 07002KT 14/M00 A3007 RMK A01 T01351001  RH  039%=      5-min Rain = 0
KLE1 180056Z 06002KT 13/M00 A3007 RMK A01 T01341001  RH  039%=      5-min Rain = 0
KLE1 180057Z 06002KT 13/M00 A3007 RMK A01 T01341001  RH  040%=      5-min Rain = 0
KLE1 180058Z 06002KT 13/M00 A3007 RMK A01 T01331001  RH  040%=      5-min Rain = 0
KLE1 180059Z 06002KT 13/M00 A3007 RMK A01 T01321001  RH  040%=      5-min Rain = 0
KLE1 180100Z 07002KT 13/M00 A3007 RMK A01 T01321001  RH  040%=      5-min Rain = 0
KLE1 180101Z 06002KT 13/M00 A3007 RMK A01 T01321001  RH  040%=      5-min Rain = 0
KLE1 180102Z 06002KT 13/M00 A3007 RMK A01 T01321001  RH  040%=      5-min Rain = 0
KLE1 180103Z 05002KT 13/M00 A3007 RMK A01 T01321001  RH  040%=      5-min Rain = 0
KLE1 180104Z 05003KT 13/M00 A3007 RMK A01 T01321002  RH  040%=      5-min Rain = 0
KLE1 180105Z 05002KT 13/M00 A3007 RMK A01 T01311002  RH  040%=      5-min Rain = 0
KLE1 180106Z 05002KT 13/M00 A3007 RMK A01 T01291003  RH  040%=      5-min Rain = 0
KLE1 180107Z 05002KT 13/M00 A3007 RMK A01 T01271003  RH  041%=      5-min Rain = 0
KLE1 180108Z 06002KT 13/M00 A3007 RMK A01 T01261003  RH  041%=      5-min Rain = 0
KLE1 180109Z 06002KT 13/M00 A3007 RMK A01 T01251003  RH  041%=      5-min Rain = 0
KLE1 180110Z 06002KT 12/M00 A3007 RMK A01 T01241003  RH  041%=      5-min Rain = 0
KLE1 180111Z 05003KT 12/M00 A3007 RMK A01 T01241003  RH  042%=      5-min Rain = 0
KLE1 180112Z 04003KT 12/M00 A3008 RMK A01 T01241003  RH  042%=      5-min Rain = 0
KLE1 180113Z 04003KT 12/M00 A3008 RMK A01 T01241003  RH  041%=      5-min Rain = 0
KLE1 180114Z 04003KT 12/M00 A3008 RMK A01 T01231004  RH  041%=      5-min Rain = 0
KLE1 180115Z 03003KT 12/M01 A3008 RMK A01 T01191006  RH  042%=      5-min Rain = 0
KLE1 180116Z 03003KT 12/M01 A3008 RMK A01 T01151006  RH  043%=      5-min Rain = 0
KLE1 180117Z 03003KT 11/M01 A3008 RMK A01 T01131006  RH  044%=      5-min Rain = 0
KLE1 180118Z 03003KT 11/M01 A3008 RMK A01 T01121005  RH  044%=      5-min Rain = 0
KLE1 180119Z 03004KT 11/M01 A3008 RMK A01 T01101006  RH  045%=      5-min Rain = 0
KLE1 180120Z 03004KT 11/M01 A3008 RMK A01 T01091006  RH  045%=      5-min Rain = 0
KLE1 180121Z 02004KT 11/M01 A3008 RMK A01 T01081006  RH  045%=      5-min Rain = 0
KLE1 180122Z 02004KT 11/M01 A3008 RMK A01 T01071006  RH  045%=      5-min Rain = 0
KLE1 180123Z 02004KT 11/M01 A3008 RMK A01 T01061006  RH  046%=      5-min Rain = 0
KLE1 180124Z 03004KT 11/M01 A3008 RMK A01 T01051006  RH  046%=      5-min Rain = 0
KLE1 180125Z 03004KT 11/M01 A3008 RMK A01 T01051005  RH  046%=      5-min Rain = 0
KLE1 180126Z 03004KT 11/M01 A3008 RMK A01 T01051005  RH  046%=      5-min Rain = 0
KLE1 180127Z 03004KT 11/M01 A3008 RMK A01 T01051006  RH  046%=      5-min Rain = 0
KLE1 180128Z 03004KT 10/M01 A3008 RMK A01 T01041006  RH  046%=      5-min Rain = 0
KLE1 180129Z 03004KT 10/M01 A3008 RMK A01 T01031007  RH  046%=      5-min Rain = 0
KLE1 180130Z 03005KT 10/M01 A3008 RMK A01 T01021006  RH  047%=      5-min Rain = 0
KLE1 180131Z 03005KT 10/M01 A3008 RMK A01 T01011007  RH  047%=      5-min Rain = 0
KLE1 180132Z 04005KT 10/M01 A3008 RMK A01 T01001006  RH  047%=      5-min Rain = 0
KLE1 180133Z 04005KT 10/M01 A3008 RMK A01 T01001006  RH  048%=      5-min Rain = 0
KLE1 180134Z 04005KT 10/M01 A3008 RMK A01 T01001006  RH  048%=      5-min Rain = 0
KLE1 180135Z 03005KT 10/M01 A3008 RMK A01 T00991006  RH  048%=      5-min Rain = 0
KLE1 180136Z 03005KT 10/M01 A3008 RMK A01 T00991006  RH  048%=      5-min Rain = 0
KLE1 180137Z 03005KT 10/M01 A3008 RMK A01 T00991006  RH  048%=      5-min Rain = 0
KLE1 180138Z 03005KT 10/M01 A3008 RMK A01 T01001006  RH  048%=      5-min Rain = 0
KLE1 180139Z 02005KT 10/M01 A3008 RMK A01 T01001006  RH  048%=      5-min Rain = 0
KLE1 180140Z 02005KT 10/M01 A3009 RMK A01 T00991007  RH  048%=      5-min Rain = 0
KLE1 180141Z 02005KT 10/M01 A3009 RMK A01 T00991007  RH  048%=      5-min Rain = 0
KLE1 180142Z 02005KT 10/M01 A3009 RMK A01 T00991007  RH  048%=      5-min Rain = 0
KLE1 180143Z 02006KT 10/M01 A3009 RMK A01 T00991006  RH  048%=      5-min Rain = 0
KLE1 180144Z 02006KT 10/M01 A3009 RMK A01 T00991006  RH  048%=      5-min Rain = 0
KLE1 180145Z 02005KT 10/M01 A3009 RMK A01 T00991006  RH  048%=      5-min Rain = 0
KLE1 180146Z 02005KT 10/M01 A3008 RMK A01 T00991006  RH  048%=      5-min Rain = 0
KLE1 180147Z 01005KT 10/M01 A3008 RMK A01 T00981006  RH  048%=      5-min Rain = 0
KLE1 180148Z 35003KT 10/M01 A3009 RMK A01 T00971006  RH  049%=      5-min Rain = 0
KLE1 180149Z 26001KT 09/M01 A3009 RMK A01 T00931009  RH  049%=      5-min Rain = 0
KLE1 180150Z 27001KT 09/M01 A3009 RMK A01 T00901009  RH  050%=      5-min Rain = 0
KLE1 180151Z 34002KT 09/M01 A3009 RMK A01 T00891008  RH  051%=      5-min Rain = 0
KLE1 180152Z 35003KT 09/M01 A3009 RMK A01 T00911006  RH  050%=      5-min Rain = 0
KLE1 180153Z 00002KT 09/M01 A3009 RMK A01 T00941006  RH  050%=      5-min Rain = 0
KLE1 180154Z 36002KT 10/M01 A3009 RMK A01 T00961006  RH  049%=      5-min Rain = 0
KLE1 180155Z 02001KT 10/M01 A3009 RMK A01 T00971006  RH  049%=      5-min Rain = 0
KLE1 180156Z 24001KT 10/M01 A3009 RMK A01 T00961007  RH  049%=      5-min Rain = 0
KLE1 180157Z 28001KT 10/M01 A3009 RMK A01 T00951008  RH  049%=      5-min Rain = 0
KLE1 180158Z 27000KT 09/M01 A3009 RMK A01 T00941007  RH  049%=      5-min Rain = 0
KLE1 180159Z 01001KT 09/M01 A3009 RMK A01 T00931007  RH  050%=      5-min Rain = 0
KLE1 180200Z 35001KT 09/M01 A3009 RMK A01 T00941007  RH  049%=      5-min Rain = 0
KLE1 180201Z 01001KT 10/M01 A3009 RMK A01 T00951006  RH  049%=      5-min Rain = 0
KLE1 180202Z 20001KT 10/M01 A3009 RMK A01 T00961006  RH  049%=      5-min Rain = 0
KLE1 180203Z 21001KT 10/M01 A3009 RMK A01 T00961007  RH  049%=      5-min Rain = 0
KLE1 180204Z 24000KT 10/M01 A3009 RMK A01 T00961006  RH  049%=      5-min Rain = 0
KLE1 180205Z 00000KT 10/M01 A3009 RMK A01 T00971006  RH  049%=      5-min Rain = 0
KLE1 180206Z 00000KT 10/M01 A3009 RMK A01 T00981006  RH  049%=      5-min Rain = 0
KLE1 180207Z 07000KT 10/M01 A3009 RMK A01 T00981006  RH  048%=      5-min Rain = 0
KLE1 180208Z 07001KT 10/M01 A3009 RMK A01 T00981006  RH  048%=      5-min Rain = 0
KLE1 180209Z 07001KT 10/M01 A3009 RMK A01 T00981006  RH  048%=      5-min Rain = 0
KLE1 180210Z 07000KT 10/M01 A3009 RMK A01 T00981006  RH  048%=      5-min Rain = 0
KLE1 180211Z 07000KT 10/M01 A3009 RMK A01 T01001005  RH  048%=      5-min Rain = 0
KLE1 180212Z 06001KT 10/M01 A3009 RMK A01 T01011005  RH  048%=      5-min Rain = 0
KLE1 180213Z 06001KT 10/M01 A3009 RMK A01 T01011006  RH  047%=      5-min Rain = 0
KLE1 180214Z 06001KT 10/M01 A3009 RMK A01 T01011006  RH  047%=      5-min Rain = 0
KLE1 180215Z 05000KT 10/M01 A3009 RMK A01 T01021006  RH  047%=      5-min Rain = 0
KLE1 180216Z 00000KT 10/M01 A3009 RMK A01 T01011006  RH  047%=      5-min Rain = 0
KLE1 180217Z 00000KT 10/M01 A3009 RMK A01 T01011006  RH  047%=      5-min Rain = 0
KLE1 180218Z 00000KT 10/M01 A3009 RMK A01 T01011006  RH  047%=      5-min Rain = 0
KLE1 180219Z 00001KT 10/M01 A3009 RMK A01 T01011006  RH  047%=      5-min Rain = 0
KLE1 180220Z 00000KT 10/M01 A3009 RMK A01 T01001006  RH  048%=      5-min Rain = 0
KLE1 180221Z 00000KT 10/M01 A3009 RMK A01 T01011006  RH  047%=      5-min Rain = 0
KLE1 180222Z 32001KT 10/M01 A3009 RMK A01 T01011006  RH  047%=      5-min Rain = 0
KLE1 180223Z 34001KT 10/M01 A3009 RMK A01 T01011006  RH  047%=      5-min Rain = 0
KLE1 180224Z 35001KT 10/M01 A3009 RMK A01 T01031005  RH  047%=      5-min Rain = 0
KLE1 180225Z 01001KT 11/M01 A3009 RMK A01 T01051005  RH  046%=      5-min Rain = 0
KLE1 180226Z 02001KT 11/M01 A3009 RMK A01 T01071005  RH  046%=      5-min Rain = 0
KLE1 180227Z 02001KT 11/M01 A3009 RMK A01 T01071005  RH  046%=      5-min Rain = 0
KLE1 180228Z 03001KT 11/M01 A3009 RMK A01 T01081005  RH  045%=      5-min Rain = 0
KLE1 180229Z 02001KT 11/M01 A3009 RMK A01 T01091005  RH  045%=      5-min Rain = 0
KLE1 180230Z 03001KT 11/M01 A3009 RMK A01 T01091005  RH  045%=      5-min Rain = 0
KLE1 180231Z 03000KT 11/M01 A3009 RMK A01 T01091005  RH  045%=      5-min Rain = 0
KLE1 180232Z 00000KT 11/M01 A3009 RMK A01 T01091005  RH  045%=      5-min Rain = 0
KLE1 180233Z 00000KT 11/M01 A3009 RMK A01 T01081005  RH  045%=      5-min Rain = 0
KLE1 180234Z 00000KT 11/M01 A3009 RMK A01 T01081005  RH  045%=      5-min Rain = 0
KLE1 180235Z 00000KT 11/M01 A3009 RMK A01 T01081005  RH  045%=      5-min Rain = 0
KLE1 180236Z 25000KT 11/M01 A3009 RMK A01 T01081006  RH  045%=      5-min Rain = 0
KLE1 180237Z 25001KT 11/M01 A3009 RMK A01 T01051007  RH  046%=      5-min Rain = 0
KLE1 180238Z 00000KT 10/M01 A3009 RMK A01 T01011007  RH  047%=      5-min Rain = 0
KLE1 180239Z 25001KT 10/M01 A3009 RMK A01 T00981007  RH  048%=      5-min Rain = 0
KLE1 180240Z 24002KT 10/M01 A3009 RMK A01 T00951007  RH  049%=      5-min Rain = 0
KLE1 180241Z 24002KT 09/M01 A3009 RMK A01 T00931007  RH  049%=      5-min Rain = 0
KLE1 180242Z 25003KT 09/M01 A3009 RMK A01 T00911008  RH  050%=      5-min Rain = 0
KLE1 180243Z 25002KT 09/M01 A3009 RMK A01 T00881009  RH  050%=      5-min Rain = 0
KLE1 180244Z 25002KT 09/M01 A3009 RMK A01 T00851011  RH  051%=      5-min Rain = 0
KLE1 180245Z 26002KT 08/M01 A3009 RMK A01 T00811011  RH  052%=      5-min Rain = 0
KLE1 180246Z 26002KT 08/M01 A3009 RMK A01 T00791011  RH  053%=      5-min Rain = 0
KLE1 180247Z 26003KT 08/M01 A3009 RMK A01 T00761012  RH  054%=      5-min Rain = 0
KLE1 180248Z 27004KT 08/M01 A3009 RMK A01 T00751012  RH  054%=      5-min Rain = 0
KLE1 180249Z 27004KT 07/M01 A3009 RMK A01 T00721013  RH  055%=      5-min Rain = 0
KLE1 180250Z 27004KT 07/M02 A3009 RMK A01 T00671015  RH  056%=      5-min Rain = 0
KLE1 180251Z 28004KT 06/M02 A3009 RMK A01 T00641015  RH  057%=      5-min Rain = 0
KLE1 180252Z 28004KT 06/M01 A3009 RMK A01 T00621014  RH  058%=      5-min Rain = 0
KLE1 180253Z 27004KT 06/M01 A3009 RMK A01 T00611014  RH  059%=      5-min Rain = 0
KLE1 180254Z 27004KT 06/M01 A3009 RMK A01 T00611013  RH  059%=      5-min Rain = 0
KLE1 180255Z 28004KT 06/M01 A3009 RMK A01 T00621012  RH  059%=      5-min Rain = 0
KLE1 180256Z 28004KT 06/M01 A3009 RMK A01 T00621013  RH  059%=      5-min Rain = 0
KLE1 180257Z 28004KT 06/M01 A3009 RMK A01 T00621012  RH  059%=      5-min Rain = 0
KLE1 180258Z 28004KT 06/M01 A3009 RMK A01 T00621012  RH  059%=      5-min Rain = 0
KLE1 180259Z 27004KT 06/M01 A3009 RMK A01 T00621012  RH  059%=      5-min Rain = 0
KLE1 180300Z 28004KT 06/M01 A3009 RMK A01 T00621012  RH  059%=      5-min Rain = 0
KLE1 180301Z 27003KT 06/M01 A3009 RMK A01 T00611013  RH  059%=      5-min Rain = 0
KLE1 180302Z 28004KT 06/M01 A3009 RMK A01 T00601013  RH  059%=      5-min Rain = 0
KLE1 180303Z 29004KT 06/M01 A3009 RMK A01 T00601012  RH  060%=      5-min Rain = 0
KLE1 180304Z 30004KT 06/M01 A3009 RMK A01 T00611011  RH  060%=      5-min Rain = 0
KLE1 180305Z 31004KT 06/M01 A3009 RMK A01 T00611011  RH  060%=      5-min Rain = 0
KLE1 180306Z 32004KT 06/M01 A3009 RMK A01 T00631010  RH  060%=      5-min Rain = 0
KLE1 180307Z 32004KT 07/M01 A301 RMK A01 T00651010  RH  059%=      5-min Rain = 0
KLE1 180308Z 31005KT 07/M01 A301 RMK A01 T00651011  RH  058%=      5-min Rain = 0
KLE1 180309Z 31005KT 06/M01 A301 RMK A01 T00641012  RH  058%=      5-min Rain = 0
KLE1 180310Z 32005KT 06/M01 A301 RMK A01 T00631012  RH  059%=      5-min Rain = 0
KLE1 180311Z 32005KT 06/M01 A3009 RMK A01 T00631012  RH  059%=      5-min Rain = 0
KLE1 180312Z 32005KT 06/M01 A3009 RMK A01 T00621013  RH  059%=      5-min Rain = 0
KLE1 180313Z 32006KT 06/M01 A3009 RMK A01 T00611013  RH  059%=      5-min Rain = 0
KLE1 180314Z 32006KT 06/M01 A3009 RMK A01 T00601013  RH  059%=      5-min Rain = 0
KLE1 180315Z 33006KT 06/M01 A3009 RMK A01 T00611013  RH  059%=      5-min Rain = 0
KLE1 180316Z 33006KT 06/M01 A3009 RMK A01 T00611013  RH  059%=      5-min Rain = 0
KLE1 180317Z 32006KT 06/M01 A3009 RMK A01 T00611012  RH  059%=      5-min Rain = 0
KLE1 180318Z 32006KT 06/M01 A3009 RMK A01 T00621012  RH  059%=      5-min Rain = 0
KLE1 180319Z 32006KT 06/M01 A3009 RMK A01 T00631011  RH  059%=      5-min Rain = 0
KLE1 180320Z 32006KT 06/M01 A3009 RMK A01 T00641011  RH  059%=      5-min Rain = 0
KLE1 180321Z 32005KT 07/M01 A3009 RMK A01 T00651011  RH  058%=      5-min Rain = 0
KLE1 180322Z 32005KT 07/M01 A3009 RMK A01 T00661011  RH  058%=      5-min Rain = 0
KLE1 180323Z 32005KT 07/M01 A3009 RMK A01 T00681010  RH  058%=      5-min Rain = 0
KLE1 180324Z 32005KT 07/M01 A3009 RMK A01 T00691010  RH  057%=      5-min Rain = 0
KLE1 180325Z 32005KT 07/M01 A3009 RMK A01 T00701010  RH  057%=      5-min Rain = 0
KLE1 180326Z 32005KT 07/M01 A301 RMK A01 T00711010  RH  056%=      5-min Rain = 0
KLE1 180327Z 32004KT 07/M01 A3009 RMK A01 T00721010  RH  056%=      5-min Rain = 0
KLE1 180328Z 32004KT 07/M01 A3009 RMK A01 T00731010  RH  056%=      5-min Rain = 0
KLE1 180329Z 32005KT 07/M01 A3009 RMK A01 T00741010  RH  055%=      5-min Rain = 0
KLE1 180330Z 31004KT 07/M01 A3009 RMK A01 T00741010  RH  055%=      5-min Rain = 0
KLE1 180331Z 31004KT 08/M01 A3009 RMK A01 T00751009  RH  055%=      5-min Rain = 0
KLE1 180332Z 31004KT 08/M01 A3009 RMK A01 T00761009  RH  055%=      5-min Rain = 0
KLE1 180333Z 31004KT 08/M01 A3009 RMK A01 T00771009  RH  054%=      5-min Rain = 0
KLE1 180334Z 32004KT 08/M01 A3009 RMK A01 T00781009  RH  054%=      5-min Rain = 0
KLE1 180335Z 32004KT 08/M01 A3009 RMK A01 T00791009  RH  054%=      5-min Rain = 0
KLE1 180336Z 32004KT 08/M01 A3009 RMK A01 T00801009  RH  054%=      5-min Rain = 0
KLE1 180337Z 32004KT 08/M01 A3009 RMK A01 T00801009  RH  053%=      5-min Rain = 0
KLE1 180338Z 33003KT 08/M01 A3009 RMK A01 T00801010  RH  053%=      5-min Rain = 0
KLE1 180339Z 33003KT 08/M01 A3009 RMK A01 T00771011  RH  054%=      5-min Rain = 0
KLE1 180340Z 33003KT 07/M01 A3009 RMK A01 T00741011  RH  055%=      5-min Rain = 0
KLE1 180341Z 33003KT 07/M01 A3009 RMK A01 T00741010  RH  055%=      5-min Rain = 0
KLE1 180342Z 33003KT 07/M01 A3009 RMK A01 T00741010  RH  055%=      5-min Rain = 0
KLE1 180343Z 33003KT 07/M01 A3009 RMK A01 T00741010  RH  055%=      5-min Rain = 0
KLE1 180344Z 33003KT 08/M01 A3009 RMK A01 T00751010  RH  055%=      5-min Rain = 0
KLE1 180345Z 32003KT 08/M01 A3009 RMK A01 T00751010  RH  055%=      5-min Rain = 0
KLE1 180346Z 32003KT 08/M01 A3009 RMK A01 T00761010  RH  054%=      5-min Rain = 0
KLE1 180347Z 32003KT 08/M01 A3009 RMK A01 T00761011  RH  054%=      5-min Rain = 0
KLE1 180348Z 32003KT 08/M01 A3009 RMK A01 T00761010  RH  054%=      5-min Rain = 0
KLE1 180349Z 32003KT 08/M01 A3009 RMK A01 T00771010  RH  054%=      5-min Rain = 0
KLE1 180350Z 32002KT 08/M01 A3008 RMK A01 T00771010  RH  054%=      5-min Rain = 0
KLE1 180351Z 32002KT 08/M01 A3008 RMK A01 T00771010  RH  054%=      5-min Rain = 0
KLE1 180352Z 32002KT 08/M01 A3008 RMK A01 T00771009  RH  054%=      5-min Rain = 0
KLE1 180353Z 31002KT 08/M01 A3008 RMK A01 T00801008  RH  054%=      5-min Rain = 0
KLE1 180354Z 30002KT 08/M01 A3008 RMK A01 T00821007  RH  053%=      5-min Rain = 0
KLE1 180355Z 30002KT 08/M01 A3008 RMK A01 T00841008  RH  053%=      5-min Rain = 0
KLE1 180356Z 30002KT 09/M01 A3008 RMK A01 T00851008  RH  052%=      5-min Rain = 0
KLE1 180357Z 30002KT 09/M01 A3008 RMK A01 T00861008  RH  052%=      5-min Rain = 0
KLE1 180358Z 30002KT 09/M01 A3008 RMK A01 T00871008  RH  052%=      5-min Rain = 0
KLE1 180359Z 30002KT 09/M01 A3008 RMK A01 T00871008  RH  051%=      5-min Rain = 0
KLE1 180400Z 29001KT 09/M01 A3008 RMK A01 T00871009  RH  051%=      5-min Rain = 0
KLE1 180401Z 29001KT 08/M01 A3008 RMK A01 T00841012  RH  051%=      5-min Rain = 0
KLE1 180402Z 29002KT 08/M01 A3008 RMK A01 T00811013  RH  052%=      5-min Rain = 0
KLE1 180403Z 29002KT 08/M01 A3008 RMK A01 T00761014  RH  053%=      5-min Rain = 0
KLE1 180404Z 29002KT 07/M01 A3008 RMK A01 T00741013  RH  054%=      5-min Rain = 0
KLE1 180405Z 29001KT 07/M01 A3008 RMK A01 T00731013  RH  054%=      5-min Rain = 0
KLE1 180406Z 28001KT 07/M01 A3008 RMK A01 T00721013  RH  055%=      5-min Rain = 0
KLE1 180407Z 27001KT 07/M01 A3008 RMK A01 T00711012  RH  056%=      5-min Rain = 0
KLE1 180408Z 27001KT 07/M01 A3008 RMK A01 T00711012  RH  056%=      5-min Rain = 0
KLE1 180409Z 27000KT 07/M01 A3008 RMK A01 T00691014  RH  056%=      5-min Rain = 0
KLE1 180410Z 00000KT 06/M02 A3008 RMK A01 T00641017  RH  056%=      5-min Rain = 0
KLE1 180411Z 27000KT 06/M02 A3008 RMK A01 T00581019  RH  058%=      5-min Rain = 0
KLE1 180412Z 28001KT 05/M02 A3008 RMK A01 T00541019  RH  059%=      5-min Rain = 0
KLE1 180413Z 28002KT 05/M02 A3008 RMK A01 T00521018  RH  061%=      5-min Rain = 0
KLE1 180414Z 29002KT 05/M02 A3008 RMK A01 T00511016  RH  062%=      5-min Rain = 0
KLE1 180415Z 29002KT 05/M02 A3008 RMK A01 T00511016  RH  062%=      5-min Rain = 0
KLE1 180416Z 29002KT 05/M02 A3008 RMK A01 T00511015  RH  062%=      5-min Rain = 0
KLE1 180417Z 30002KT 05/M01 A3008 RMK A01 T00511014  RH  063%=      5-min Rain = 0
KLE1 180418Z 30002KT 05/M01 A3007 RMK A01 T00531013  RH  062%=      5-min Rain = 0
KLE1 180419Z 30002KT 05/M01 A3007 RMK A01 T00531013  RH  062%=      5-min Rain = 0
KLE1 180420Z 30002KT 05/M01 A3007 RMK A01 T00541014  RH  062%=      5-min Rain = 0
KLE1 180421Z 31002KT 05/M01 A3007 RMK A01 T00531014  RH  062%=      5-min Rain = 0
KLE1 180422Z 31002KT 05/M01 A3007 RMK A01 T00521014  RH  062%=      5-min Rain = 0
KLE1 180423Z 31001KT 05/M01 A3007 RMK A01 T00521014  RH  062%=      5-min Rain = 0
KLE1 180424Z 31001KT 05/M02 A3007 RMK A01 T00511015  RH  062%=      5-min Rain = 0
KLE1 180425Z 31001KT 05/M02 A3007 RMK A01 T00501016  RH  063%=      5-min Rain = 0
KLE1 180426Z 31001KT 05/M02 A3007 RMK A01 T00481016  RH  063%=      5-min Rain = 0
KLE1 180427Z 31001KT 05/M02 A3007 RMK A01 T00481015  RH  064%=      5-min Rain = 0
KLE1 180428Z 30001KT 05/M02 A3007 RMK A01 T00481015  RH  064%=      5-min Rain = 0
KLE1 180429Z 27002KT 05/M02 A3007 RMK A01 T00471015  RH  064%=      5-min Rain = 0
KLE1 180430Z 26002KT 05/M02 A3007 RMK A01 T00471015  RH  064%=      5-min Rain = 0
KLE1 180431Z 26002KT 05/M02 A3007 RMK A01 T00471015  RH  064%=      5-min Rain = 0
KLE1 180432Z 26002KT 05/M02 A3007 RMK A01 T00461016  RH  064%=      5-min Rain = 0
KLE1 180433Z 26001KT 05/M02 A3007 RMK A01 T00461016  RH  064%=      5-min Rain = 0
KLE1 180434Z 27001KT 05/M02 A3007 RMK A01 T00461016  RH  064%=      5-min Rain = 0
KLE1 180435Z 25001KT 05/M02 A3006 RMK A01 T00451016  RH  065%=      5-min Rain = 0
KLE1 180436Z 27000KT 05/M02 A3006 RMK A01 T00451016  RH  065%=      5-min Rain = 0
KLE1 180437Z 24001KT 05/M02 A3006 RMK A01 T00461015  RH  065%=      5-min Rain = 0
KLE1 180438Z 23000KT 05/M02 A3006 RMK A01 T00461016  RH  064%=      5-min Rain = 0
KLE1 180439Z 25001KT 05/M02 A3006 RMK A01 T00471015  RH  064%=      5-min Rain = 0
KLE1 180440Z 24001KT 05/M02 A3006 RMK A01 T00461016  RH  064%=      5-min Rain = 0
KLE1 180441Z 25002KT 05/M02 A3006 RMK A01 T00461016  RH  064%=      5-min Rain = 0
KLE1 180442Z 26001KT 05/M02 A3006 RMK A01 T00461016  RH  064%=      5-min Rain = 0
KLE1 180443Z 26001KT 05/M02 A3006 RMK A01 T00461016  RH  064%=      5-min Rain = 0
KLE1 180444Z 26001KT 05/M02 A3006 RMK A01 T00461015  RH  064%=      5-min Rain = 0
KLE1 180445Z 26002KT 05/M02 A3006 RMK A01 T00471015  RH  064%=      5-min Rain = 0
KLE1 180446Z 26002KT 05/M02 A3006 RMK A01 T00471016  RH  064%=      5-min Rain = 0
KLE1 180447Z 26003KT 05/M02 A3006 RMK A01 T00451018  RH  064%=      5-min Rain = 0
KLE1 180448Z 26003KT 04/M02 A3006 RMK A01 T00431019  RH  064%=      5-min Rain = 0
KLE1 180449Z 27003KT 04/M02 A3006 RMK A01 T00411019  RH  065%=      5-min Rain = 0
KLE1 180450Z 27003KT 04/M02 A3006 RMK A01 T00391019  RH  066%=      5-min Rain = 0
KLE1 180451Z 27003KT 04/M02 A3006 RMK A01 T00381018  RH  066%=      5-min Rain = 0
KLE1 180452Z 27003KT 04/M02 A3006 RMK A01 T00381018  RH  067%=      5-min Rain = 0
KLE1 180453Z 27003KT 04/M02 A3006 RMK A01 T00371018  RH  067%=      5-min Rain = 0
KLE1 180454Z 27003KT 04/M02 A3006 RMK A01 T00371018  RH  067%=      5-min Rain = 0
KLE1 180455Z 28003KT 04/M02 A3006 RMK A01 T00361018  RH  067%=      5-min Rain = 0
KLE1 180456Z 27003KT 04/M02 A3006 RMK A01 T00361019  RH  068%=      5-min Rain = 0
KLE1 180457Z 27004KT 04/M02 A3006 RMK A01 T00351019  RH  068%=      5-min Rain = 0
KLE1 180458Z 27004KT 04/M02 A3006 RMK A01 T00351019  RH  068%=      5-min Rain = 0
KLE1 180459Z 27004KT 03/M02 A3006 RMK A01 T00341019  RH  068%=      5-min Rain = 0
KLE1 180500Z 27004KT 03/M02 A3006 RMK A01 T00341018  RH  069%=      5-min Rain = 0
KLE1 180501Z 27004KT 03/M02 A3006 RMK A01 T00341018  RH  069%=      5-min Rain = 0
KLE1 180502Z 27004KT 03/M02 A3006 RMK A01 T00331019  RH  069%=      5-min Rain = 0
KLE1 180503Z 28004KT 03/M02 A3006 RMK A01 T00331019  RH  069%=      5-min Rain = 0
KLE1 180504Z 27004KT 03/M02 A3006 RMK A01 T00321020  RH  069%=      5-min Rain = 0
KLE1 180505Z 27004KT 03/M02 A3006 RMK A01 T00321020  RH  069%=      5-min Rain = 0
KLE1 180506Z 27004KT 03/M02 A3006 RMK A01 T00311020  RH  069%=      5-min Rain = 0
KLE1 180507Z 27005KT 03/M02 A3006 RMK A01 T00311020  RH  069%=      5-min Rain = 0
KLE1 180508Z 27005KT 03/M02 A3006 RMK A01 T00311020  RH  069%=      5-min Rain = 0
KLE1 180509Z 27005KT 03/M02 A3006 RMK A01 T00301020  RH  069%=      5-min Rain = 0
KLE1 180510Z 27004KT 03/M02 A3006 RMK A01 T00301020  RH  069%=      5-min Rain = 0
KLE1 180511Z 27004KT 03/M02 A3006 RMK A01 T00301021  RH  069%=      5-min Rain = 0
KLE1 180512Z 27004KT 03/M02 A3005 RMK A01 T00301021  RH  069%=      5-min Rain = 0
KLE1 180513Z 27004KT 03/M02 A3005 RMK A01 T00291021  RH  069%=      5-min Rain = 0
KLE1 180514Z 28004KT 03/M02 A3005 RMK A01 T00291021  RH  070%=      5-min Rain = 0
KLE1 180515Z 28004KT 03/M02 A3005 RMK A01 T00281022  RH  070%=      5-min Rain = 0
KLE1 180516Z 27004KT 03/M02 A3005 RMK A01 T00281022  RH  070%=      5-min Rain = 0
KLE1 180517Z 27004KT 03/M02 A3005 RMK A01 T00281022  RH  070%=      5-min Rain = 0
KLE1 180518Z 27004KT 03/M02 A3005 RMK A01 T00281021  RH  070%=      5-min Rain = 0
KLE1 180519Z 27005KT 03/M02 A3005 RMK A01 T00271022  RH  070%=      5-min Rain = 0
KLE1 180520Z 27005KT 03/M02 A3005 RMK A01 T00261022  RH  070%=      5-min Rain = 0
KLE1 180521Z 27005KT 03/M02 A3005 RMK A01 T00251022  RH  071%=      5-min Rain = 0
KLE1 180522Z 27005KT 02/M02 A3005 RMK A01 T00241022  RH  071%=      5-min Rain = 0
KLE1 180523Z 27005KT 02/M02 A3004 RMK A01 T00231022  RH  072%=      5-min Rain = 0
KLE1 180524Z 27006KT 02/M02 A3004 RMK A01 T00231022  RH  072%=      5-min Rain = 0
KLE1 180525Z 27006KT 02/M02 A3004 RMK A01 T00231022  RH  072%=      5-min Rain = 0
KLE1 180526Z 27005KT 02/M02 A3004 RMK A01 T00231022  RH  072%=      5-min Rain = 0
KLE1 180527Z 27005KT 02/M02 A3004 RMK A01 T00231022  RH  072%=      5-min Rain = 0
KLE1 180528Z 27005KT 02/M02 A3004 RMK A01 T00241022  RH  072%=      5-min Rain = 0
KLE1 180529Z 28006KT 02/M02 A3004 RMK A01 T00241022  RH  072%=      5-min Rain = 0
KLE1 180530Z 29006KT 02/M02 A3004 RMK A01 T00241021  RH  072%=      5-min Rain = 0
KLE1 180531Z 29006KT 03/M02 A3004 RMK A01 T00251021  RH  072%=      5-min Rain = 0
KLE1 180532Z 29005KT 03/M02 A3004 RMK A01 T00261020  RH  071%=      5-min Rain = 0
KLE1 180533Z 29006KT 03/M02 A3004 RMK A01 T00271020  RH  071%=      5-min Rain = 0
KLE1 180534Z 29006KT 03/M02 A3004 RMK A01 T00281019  RH  071%=      5-min Rain = 0
KLE1 180535Z 29006KT 03/M02 A3004 RMK A01 T00291019  RH  071%=      5-min Rain = 0
KLE1 180536Z 28006KT 03/M02 A3004 RMK A01 T00291020  RH  070%=      5-min Rain = 0
KLE1 180537Z 28006KT 03/M02 A3004 RMK A01 T00291020  RH  070%=      5-min Rain = 0
KLE1 180538Z 29006KT 03/M02 A3004 RMK A01 T00291019  RH  070%=      5-min Rain = 0
KLE1 180539Z 29006KT 03/M02 A3004 RMK A01 T00291019  RH  071%=      5-min Rain = 0
KLE1 180540Z 29006KT 03/M02 A3004 RMK A01 T00281020  RH  071%=      5-min Rain = 0
KLE1 180541Z 29005KT 03/M02 A3004 RMK A01 T00281020  RH  071%=      5-min Rain = 0
KLE1 180542Z 29006KT 03/M02 A3004 RMK A01 T00281020  RH  071%=      5-min Rain = 0
KLE1 180543Z 29006KT 03/M02 A3004 RMK A01 T00281020  RH  070%=      5-min Rain = 0
KLE1 180544Z 29005KT 03/M02 A3004 RMK A01 T00281020  RH  070%=      5-min Rain = 0
KLE1 180545Z 29005KT 03/M02 A3004 RMK A01 T00281020  RH  070%=      5-min Rain = 0
KLE1 180546Z 29005KT 03/M02 A3004 RMK A01 T00281020  RH  070%=      5-min Rain = 0
KLE1 180547Z 29005KT 03/M02 A3004 RMK A01 T00281020  RH  071%=      5-min Rain = 0
KLE1 180548Z 29005KT 03/M02 A3004 RMK A01 T00281020  RH  071%=      5-min Rain = 0
KLE1 180549Z 29005KT 03/M02 A3003 RMK A01 T00281020  RH  070%=      5-min Rain = 0
KLE1 180550Z 29005KT 03/M02 A3003 RMK A01 T00281021  RH  070%=      5-min Rain = 0
KLE1 180551Z 28004KT 03/M02 A3003 RMK A01 T00271021  RH  070%=      5-min Rain = 0
KLE1 180552Z 28005KT 03/M02 A3003 RMK A01 T00261022  RH  071%=      5-min Rain = 0
KLE1 180553Z 28005KT 03/M02 A3003 RMK A01 T00251022  RH  071%=      5-min Rain = 0
KLE1 180554Z 28005KT 02/M02 A3003 RMK A01 T00241021  RH  072%=      5-min Rain = 0
KLE1 180555Z 28005KT 02/M02 A3003 RMK A01 T00231021  RH  073%=      5-min Rain = 0
KLE1 180556Z 28005KT 02/M02 A3003 RMK A01 T00231021  RH  073%=      5-min Rain = 0
KLE1 180557Z 28005KT 02/M02 A3003 RMK A01 T00231020  RH  073%=      5-min Rain = 0
KLE1 180558Z 28005KT 02/M02 A3003 RMK A01 T00231020  RH  073%=      5-min Rain = 0
KLE1 180559Z 28005KT 02/M02 A3003 RMK A01 T00231020  RH  073%=      5-min Rain = 0

Page generated in 0.0765 seconds.